<?xml version="1.0" encoding="UTF-8" standalone="no" ?>
<gpx xmlns="http://www.topografix.com/GPX/1/1" xmlns:xsi="http://www.w3.org/2001/XMLSchema-instance" xsi:schemaLocation="http://www.topografix.com/GPX/1/1 http://www.topografix.com/GPX/1/1/gpx.xsd" version="1.1" creator="VisuGPX - https://www.visugpx.com">
  <metadata>
    <name>Autour de la Combe Mercier</name>
    <desc><![CDATA[Une ballade en dehors des traditionnels randonnées de Fontainebleau]]></desc>
  </metadata>
  <trk>
    <name><![CDATA[ACTIVE LOG-1]]></name>
    <trkseg>
      <trkpt lat="48.39007" lon="2.55337">
        <ele>75.60083</ele>
        <time>2012-05-07T11:31:55Z</time>
      </trkpt>
      <trkpt lat="48.39006" lon="2.55331">
        <ele>75.60083</ele>
        <time>2012-05-07T11:32:05Z</time>
      </trkpt>
      <trkpt lat="48.39009" lon="2.55325">
        <ele>75.120239</ele>
        <time>2012-05-07T11:32:15Z</time>
      </trkpt>
      <trkpt lat="48.39012" lon="2.55317">
        <ele>75.120239</ele>
        <time>2012-05-07T11:32:23Z</time>
      </trkpt>
      <trkpt lat="48.3902" lon="2.55311">
        <ele>75.120239</ele>
        <time>2012-05-07T11:32:33Z</time>
      </trkpt>
      <trkpt lat="48.39027" lon="2.5531">
        <ele>75.120239</ele>
        <time>2012-05-07T11:32:41Z</time>
      </trkpt>
      <trkpt lat="48.39037" lon="2.55306">
        <ele>74.639526</ele>
        <time>2012-05-07T11:32:49Z</time>
      </trkpt>
      <trkpt lat="48.3904" lon="2.55303">
        <ele>75.120239</ele>
        <time>2012-05-07T11:32:52Z</time>
      </trkpt>
      <trkpt lat="48.39042" lon="2.55299">
        <ele>74.639526</ele>
        <time>2012-05-07T11:32:54Z</time>
      </trkpt>
      <trkpt lat="48.39046" lon="2.55285">
        <ele>75.120239</ele>
        <time>2012-05-07T11:33:01Z</time>
      </trkpt>
      <trkpt lat="48.39048" lon="2.55266">
        <ele>75.120239</ele>
        <time>2012-05-07T11:33:11Z</time>
      </trkpt>
      <trkpt lat="48.39049" lon="2.55258">
        <ele>75.120239</ele>
        <time>2012-05-07T11:33:17Z</time>
      </trkpt>
      <trkpt lat="48.39058" lon="2.55252">
        <ele>75.60083</ele>
        <time>2012-05-07T11:33:26Z</time>
      </trkpt>
      <trkpt lat="48.39067" lon="2.55242">
        <ele>75.60083</ele>
        <time>2012-05-07T11:33:35Z</time>
      </trkpt>
      <trkpt lat="48.39068" lon="2.55241">
        <ele>75.60083</ele>
        <time>2012-05-07T11:33:37Z</time>
      </trkpt>
      <trkpt lat="48.39072" lon="2.55237">
        <ele>75.60083</ele>
        <time>2012-05-07T11:33:41Z</time>
      </trkpt>
      <trkpt lat="48.39085" lon="2.5523">
        <ele>76.562134</ele>
        <time>2012-05-07T11:33:50Z</time>
      </trkpt>
      <trkpt lat="48.39094" lon="2.55229">
        <ele>76.081421</ele>
        <time>2012-05-07T11:33:58Z</time>
      </trkpt>
      <trkpt lat="48.39108" lon="2.55225">
        <ele>77.042847</ele>
        <time>2012-05-07T11:34:08Z</time>
      </trkpt>
      <trkpt lat="48.3911" lon="2.55226">
        <ele>77.523438</ele>
        <time>2012-05-07T11:34:09Z</time>
      </trkpt>
      <trkpt lat="48.39122" lon="2.55229">
        <ele>78.965454</ele>
        <time>2012-05-07T11:34:19Z</time>
      </trkpt>
      <trkpt lat="48.39134" lon="2.55235">
        <ele>79.926636</ele>
        <time>2012-05-07T11:34:29Z</time>
      </trkpt>
      <trkpt lat="48.39141" lon="2.55236">
        <ele>80.888184</ele>
        <time>2012-05-07T11:34:35Z</time>
      </trkpt>
      <trkpt lat="48.39147" lon="2.55231">
        <ele>82.810791</ele>
        <time>2012-05-07T11:34:43Z</time>
      </trkpt>
      <trkpt lat="48.3915" lon="2.55223">
        <ele>83.771973</ele>
        <time>2012-05-07T11:34:52Z</time>
      </trkpt>
      <trkpt lat="48.39157" lon="2.55212">
        <ele>84.252686</ele>
        <time>2012-05-07T11:35:00Z</time>
      </trkpt>
      <trkpt lat="48.3916" lon="2.55205">
        <ele>84.252686</ele>
        <time>2012-05-07T11:35:06Z</time>
      </trkpt>
      <trkpt lat="48.39165" lon="2.55196">
        <ele>84.733398</ele>
        <time>2012-05-07T11:35:12Z</time>
      </trkpt>
      <trkpt lat="48.39167" lon="2.55194">
        <ele>84.733398</ele>
        <time>2012-05-07T11:35:13Z</time>
      </trkpt>
      <trkpt lat="48.39172" lon="2.5519">
        <ele>85.213989</ele>
        <time>2012-05-07T11:35:19Z</time>
      </trkpt>
      <trkpt lat="48.39178" lon="2.55192">
        <ele>86.175293</ele>
        <time>2012-05-07T11:35:26Z</time>
      </trkpt>
      <trkpt lat="48.39185" lon="2.55195">
        <ele>87.136597</ele>
        <time>2012-05-07T11:35:34Z</time>
      </trkpt>
      <trkpt lat="48.39192" lon="2.55195">
        <ele>86.175293</ele>
        <time>2012-05-07T11:35:41Z</time>
      </trkpt>
      <trkpt lat="48.392" lon="2.55195">
        <ele>86.175293</ele>
        <time>2012-05-07T11:35:49Z</time>
      </trkpt>
      <trkpt lat="48.39205" lon="2.55188">
        <ele>86.656006</ele>
        <time>2012-05-07T11:35:56Z</time>
      </trkpt>
      <trkpt lat="48.39206" lon="2.55178">
        <ele>88.578735</ele>
        <time>2012-05-07T11:36:03Z</time>
      </trkpt>
      <trkpt lat="48.39208" lon="2.55163">
        <ele>89.539917</ele>
        <time>2012-05-07T11:36:12Z</time>
      </trkpt>
      <trkpt lat="48.39206" lon="2.55154">
        <ele>90.02063</ele>
        <time>2012-05-07T11:36:19Z</time>
      </trkpt>
      <trkpt lat="48.39208" lon="2.55147">
        <ele>88.578735</ele>
        <time>2012-05-07T11:36:27Z</time>
      </trkpt>
      <trkpt lat="48.39205" lon="2.55138">
        <ele>85.69458</ele>
        <time>2012-05-07T11:36:35Z</time>
      </trkpt>
      <trkpt lat="48.39208" lon="2.5513">
        <ele>83.771973</ele>
        <time>2012-05-07T11:36:43Z</time>
      </trkpt>
      <trkpt lat="48.39211" lon="2.55125">
        <ele>82.810791</ele>
        <time>2012-05-07T11:36:51Z</time>
      </trkpt>
      <trkpt lat="48.39214" lon="2.55118">
        <ele>81.849365</ele>
        <time>2012-05-07T11:37:00Z</time>
      </trkpt>
      <trkpt lat="48.39219" lon="2.55112">
        <ele>79.446045</ele>
        <time>2012-05-07T11:37:09Z</time>
      </trkpt>
      <trkpt lat="48.39225" lon="2.55113">
        <ele>78.965454</ele>
        <time>2012-05-07T11:37:17Z</time>
      </trkpt>
      <trkpt lat="48.3923" lon="2.55117">
        <ele>78.965454</ele>
        <time>2012-05-07T11:37:26Z</time>
      </trkpt>
      <trkpt lat="48.39234" lon="2.55127">
        <ele>79.446045</ele>
        <time>2012-05-07T11:37:34Z</time>
      </trkpt>
      <trkpt lat="48.39239" lon="2.55132">
        <ele>78.484741</ele>
        <time>2012-05-07T11:37:41Z</time>
      </trkpt>
      <trkpt lat="48.39241" lon="2.55138">
        <ele>78.965454</ele>
        <time>2012-05-07T11:37:45Z</time>
      </trkpt>
      <trkpt lat="48.39245" lon="2.55143">
        <ele>78.484741</ele>
        <time>2012-05-07T11:37:50Z</time>
      </trkpt>
      <trkpt lat="48.39253" lon="2.5515">
        <ele>78.004028</ele>
        <time>2012-05-07T11:37:58Z</time>
      </trkpt>
      <trkpt lat="48.39262" lon="2.55158">
        <ele>76.081421</ele>
        <time>2012-05-07T11:38:06Z</time>
      </trkpt>
      <trkpt lat="48.39268" lon="2.55172">
        <ele>76.081421</ele>
        <time>2012-05-07T11:38:15Z</time>
      </trkpt>
      <trkpt lat="48.39276" lon="2.55182">
        <ele>76.562134</ele>
        <time>2012-05-07T11:38:24Z</time>
      </trkpt>
      <trkpt lat="48.39286" lon="2.55189">
        <ele>76.562134</ele>
        <time>2012-05-07T11:38:32Z</time>
      </trkpt>
      <trkpt lat="48.39296" lon="2.55194">
        <ele>77.042847</ele>
        <time>2012-05-07T11:38:41Z</time>
      </trkpt>
      <trkpt lat="48.39306" lon="2.552">
        <ele>77.042847</ele>
        <time>2012-05-07T11:38:48Z</time>
      </trkpt>
      <trkpt lat="48.3932" lon="2.55204">
        <ele>77.042847</ele>
        <time>2012-05-07T11:38:57Z</time>
      </trkpt>
      <trkpt lat="48.39336" lon="2.55208">
        <ele>77.042847</ele>
        <time>2012-05-07T11:39:08Z</time>
      </trkpt>
      <trkpt lat="48.39342" lon="2.55207">
        <ele>77.523438</ele>
        <time>2012-05-07T11:39:11Z</time>
      </trkpt>
      <trkpt lat="48.39357" lon="2.55211">
        <ele>77.042847</ele>
        <time>2012-05-07T11:39:20Z</time>
      </trkpt>
      <trkpt lat="48.39372" lon="2.55217">
        <ele>77.523438</ele>
        <time>2012-05-07T11:39:28Z</time>
      </trkpt>
      <trkpt lat="48.39389" lon="2.55215">
        <ele>78.484741</ele>
        <time>2012-05-07T11:39:37Z</time>
      </trkpt>
      <trkpt lat="48.394" lon="2.55207">
        <ele>78.004028</ele>
        <time>2012-05-07T11:39:46Z</time>
      </trkpt>
      <trkpt lat="48.39411" lon="2.55205">
        <ele>78.484741</ele>
        <time>2012-05-07T11:39:55Z</time>
      </trkpt>
      <trkpt lat="48.39417" lon="2.55195">
        <ele>78.004028</ele>
        <time>2012-05-07T11:40:03Z</time>
      </trkpt>
      <trkpt lat="48.39424" lon="2.55187">
        <ele>79.446045</ele>
        <time>2012-05-07T11:40:11Z</time>
      </trkpt>
      <trkpt lat="48.3943" lon="2.55181">
        <ele>79.926636</ele>
        <time>2012-05-07T11:40:18Z</time>
      </trkpt>
      <trkpt lat="48.39433" lon="2.55173">
        <ele>80.407471</ele>
        <time>2012-05-07T11:40:24Z</time>
      </trkpt>
      <trkpt lat="48.39435" lon="2.55167">
        <ele>81.849365</ele>
        <time>2012-05-07T11:40:28Z</time>
      </trkpt>
      <trkpt lat="48.39439" lon="2.5515">
        <ele>82.330078</ele>
        <time>2012-05-07T11:40:36Z</time>
      </trkpt>
      <trkpt lat="48.39439" lon="2.55144">
        <ele>82.810791</ele>
        <time>2012-05-07T11:40:40Z</time>
      </trkpt>
      <trkpt lat="48.39439" lon="2.55136">
        <ele>83.771973</ele>
        <time>2012-05-07T11:40:47Z</time>
      </trkpt>
      <trkpt lat="48.39443" lon="2.55127">
        <ele>85.69458</ele>
        <time>2012-05-07T11:40:54Z</time>
      </trkpt>
      <trkpt lat="48.39445" lon="2.55121">
        <ele>86.175293</ele>
        <time>2012-05-07T11:40:58Z</time>
      </trkpt>
      <trkpt lat="48.39452" lon="2.55104">
        <ele>86.656006</ele>
        <time>2012-05-07T11:41:06Z</time>
      </trkpt>
      <trkpt lat="48.39454" lon="2.55092">
        <ele>89.059326</ele>
        <time>2012-05-07T11:41:15Z</time>
      </trkpt>
      <trkpt lat="48.39459" lon="2.55077">
        <ele>90.981934</ele>
        <time>2012-05-07T11:41:24Z</time>
      </trkpt>
      <trkpt lat="48.39457" lon="2.55073">
        <ele>90.02063</ele>
        <time>2012-05-07T11:41:32Z</time>
      </trkpt>
      <trkpt lat="48.39454" lon="2.55071">
        <ele>89.539917</ele>
        <time>2012-05-07T11:41:35Z</time>
      </trkpt>
      <trkpt lat="48.39454" lon="2.55057">
        <ele>89.539917</ele>
        <time>2012-05-07T11:41:42Z</time>
      </trkpt>
      <trkpt lat="48.39453" lon="2.5505">
        <ele>88.578735</ele>
        <time>2012-05-07T11:41:48Z</time>
      </trkpt>
      <trkpt lat="48.39451" lon="2.55037">
        <ele>89.059326</ele>
        <time>2012-05-07T11:41:57Z</time>
      </trkpt>
      <trkpt lat="48.3945" lon="2.55024">
        <ele>88.578735</ele>
        <time>2012-05-07T11:42:05Z</time>
      </trkpt>
      <trkpt lat="48.39451" lon="2.55015">
        <ele>89.059326</ele>
        <time>2012-05-07T11:42:11Z</time>
      </trkpt>
      <trkpt lat="48.39452" lon="2.5501">
        <ele>88.578735</ele>
        <time>2012-05-07T11:42:13Z</time>
      </trkpt>
      <trkpt lat="48.39452" lon="2.54991">
        <ele>90.02063</ele>
        <time>2012-05-07T11:42:22Z</time>
      </trkpt>
      <trkpt lat="48.39459" lon="2.54973">
        <ele>90.981934</ele>
        <time>2012-05-07T11:42:29Z</time>
      </trkpt>
      <trkpt lat="48.3946" lon="2.54965">
        <ele>91.943237</ele>
        <time>2012-05-07T11:42:34Z</time>
      </trkpt>
      <trkpt lat="48.39458" lon="2.54955">
        <ele>94.346558</ele>
        <time>2012-05-07T11:42:42Z</time>
      </trkpt>
      <trkpt lat="48.39454" lon="2.54949">
        <ele>94.827148</ele>
        <time>2012-05-07T11:42:45Z</time>
      </trkpt>
      <trkpt lat="48.39452" lon="2.54939">
        <ele>96.269287</ele>
        <time>2012-05-07T11:42:54Z</time>
      </trkpt>
      <trkpt lat="48.39454" lon="2.5493">
        <ele>97.230469</ele>
        <time>2012-05-07T11:43:04Z</time>
      </trkpt>
      <trkpt lat="48.3945" lon="2.54923">
        <ele>98.672485</ele>
        <time>2012-05-07T11:43:12Z</time>
      </trkpt>
      <trkpt lat="48.39452" lon="2.54914">
        <ele>99.153076</ele>
        <time>2012-05-07T11:43:18Z</time>
      </trkpt>
      <trkpt lat="48.3945" lon="2.54911">
        <ele>100.595093</ele>
        <time>2012-05-07T11:43:24Z</time>
      </trkpt>
      <trkpt lat="48.3945" lon="2.54904">
        <ele>101.556396</ele>
        <time>2012-05-07T11:43:32Z</time>
      </trkpt>
      <trkpt lat="48.39451" lon="2.54898">
        <ele>102.998291</ele>
        <time>2012-05-07T11:43:41Z</time>
      </trkpt>
      <trkpt lat="48.39455" lon="2.54891">
        <ele>103.959717</ele>
        <time>2012-05-07T11:43:48Z</time>
      </trkpt>
      <trkpt lat="48.39457" lon="2.54883">
        <ele>105.882446</ele>
        <time>2012-05-07T11:43:55Z</time>
      </trkpt>
      <trkpt lat="48.39462" lon="2.54872">
        <ele>107.324341</ele>
        <time>2012-05-07T11:44:05Z</time>
      </trkpt>
      <trkpt lat="48.39461" lon="2.5487">
        <ele>108.285645</ele>
        <time>2012-05-07T11:44:09Z</time>
      </trkpt>
      <trkpt lat="48.3946" lon="2.54864">
        <ele>109.246948</ele>
        <time>2012-05-07T11:44:18Z</time>
      </trkpt>
      <trkpt lat="48.39459" lon="2.54855">
        <ele>111.650269</ele>
        <time>2012-05-07T11:44:29Z</time>
      </trkpt>
      <trkpt lat="48.39455" lon="2.54845">
        <ele>112.611572</ele>
        <time>2012-05-07T11:44:39Z</time>
      </trkpt>
      <trkpt lat="48.39451" lon="2.5484">
        <ele>113.572998</ele>
        <time>2012-05-07T11:44:47Z</time>
      </trkpt>
      <trkpt lat="48.39448" lon="2.54836">
        <ele>115.014893</ele>
        <time>2012-05-07T11:44:57Z</time>
      </trkpt>
      <trkpt lat="48.39447" lon="2.54833">
        <ele>116.9375</ele>
        <time>2012-05-07T11:45:05Z</time>
      </trkpt>
      <trkpt lat="48.39448" lon="2.54829">
        <ele>118.860107</ele>
        <time>2012-05-07T11:45:12Z</time>
      </trkpt>
      <trkpt lat="48.39451" lon="2.54824">
        <ele>121.26355</ele>
        <time>2012-05-07T11:45:22Z</time>
      </trkpt>
      <trkpt lat="48.39454" lon="2.54818">
        <ele>122.224731</ele>
        <time>2012-05-07T11:45:29Z</time>
      </trkpt>
      <trkpt lat="48.39456" lon="2.54813">
        <ele>122.705444</ele>
        <time>2012-05-07T11:45:37Z</time>
      </trkpt>
      <trkpt lat="48.39461" lon="2.54806">
        <ele>122.705444</ele>
        <time>2012-05-07T11:45:45Z</time>
      </trkpt>
      <trkpt lat="48.39464" lon="2.5479">
        <ele>123.666748</ele>
        <time>2012-05-07T11:45:53Z</time>
      </trkpt>
      <trkpt lat="48.39464" lon="2.54786">
        <ele>124.628052</ele>
        <time>2012-05-07T11:46:00Z</time>
      </trkpt>
      <trkpt lat="48.39461" lon="2.5478">
        <ele>127.031372</ele>
        <time>2012-05-07T11:46:16Z</time>
      </trkpt>
      <trkpt lat="48.39458" lon="2.54774">
        <ele>126.550659</ele>
        <time>2012-05-07T11:46:25Z</time>
      </trkpt>
      <trkpt lat="48.39455" lon="2.54774">
        <ele>126.069946</ele>
        <time>2012-05-07T11:46:32Z</time>
      </trkpt>
      <trkpt lat="48.39453" lon="2.54776">
        <ele>125.108765</ele>
        <time>2012-05-07T11:46:39Z</time>
      </trkpt>
      <trkpt lat="48.39445" lon="2.54782">
        <ele>124.628052</ele>
        <time>2012-05-07T11:46:48Z</time>
      </trkpt>
      <trkpt lat="48.39442" lon="2.54788">
        <ele>124.147339</ele>
        <time>2012-05-07T11:46:54Z</time>
      </trkpt>
      <trkpt lat="48.39437" lon="2.54794">
        <ele>124.147339</ele>
        <time>2012-05-07T11:47:03Z</time>
      </trkpt>
      <trkpt lat="48.39428" lon="2.54792">
        <ele>125.589355</ele>
        <time>2012-05-07T11:47:15Z</time>
      </trkpt>
      <trkpt lat="48.39429" lon="2.54789">
        <ele>125.108765</ele>
        <time>2012-05-07T11:47:21Z</time>
      </trkpt>
      <trkpt lat="48.39427" lon="2.54781">
        <ele>125.589355</ele>
        <time>2012-05-07T11:47:29Z</time>
      </trkpt>
      <trkpt lat="48.39428" lon="2.54772">
        <ele>125.108765</ele>
        <time>2012-05-07T11:47:35Z</time>
      </trkpt>
      <trkpt lat="48.39424" lon="2.54762">
        <ele>124.147339</ele>
        <time>2012-05-07T11:47:45Z</time>
      </trkpt>
      <trkpt lat="48.39425" lon="2.54754">
        <ele>123.666748</ele>
        <time>2012-05-07T11:47:54Z</time>
      </trkpt>
      <trkpt lat="48.39426" lon="2.54746">
        <ele>124.628052</ele>
        <time>2012-05-07T11:48:01Z</time>
      </trkpt>
      <trkpt lat="48.39428" lon="2.54742">
        <ele>124.147339</ele>
        <time>2012-05-07T11:48:05Z</time>
      </trkpt>
      <trkpt lat="48.39432" lon="2.54741">
        <ele>124.628052</ele>
        <time>2012-05-07T11:48:09Z</time>
      </trkpt>
      <trkpt lat="48.39436" lon="2.54737">
        <ele>124.147339</ele>
        <time>2012-05-07T11:48:17Z</time>
      </trkpt>
      <trkpt lat="48.39441" lon="2.54733">
        <ele>123.666748</ele>
        <time>2012-05-07T11:48:26Z</time>
      </trkpt>
      <trkpt lat="48.39438" lon="2.54733">
        <ele>122.705444</ele>
        <time>2012-05-07T11:49:18Z</time>
      </trkpt>
      <trkpt lat="48.3944" lon="2.54729">
        <ele>123.186157</ele>
        <time>2012-05-07T11:49:36Z</time>
      </trkpt>
      <trkpt lat="48.39445" lon="2.54721">
        <ele>123.666748</ele>
        <time>2012-05-07T11:49:43Z</time>
      </trkpt>
      <trkpt lat="48.39445" lon="2.5472">
        <ele>122.705444</ele>
        <time>2012-05-07T11:49:50Z</time>
      </trkpt>
      <trkpt lat="48.39445" lon="2.54715">
        <ele>122.705444</ele>
        <time>2012-05-07T11:49:56Z</time>
      </trkpt>
      <trkpt lat="48.39446" lon="2.5471">
        <ele>122.224731</ele>
        <time>2012-05-07T11:50:00Z</time>
      </trkpt>
      <trkpt lat="48.39449" lon="2.54697">
        <ele>123.186157</ele>
        <time>2012-05-07T11:50:09Z</time>
      </trkpt>
      <trkpt lat="48.3945" lon="2.54692">
        <ele>124.147339</ele>
        <time>2012-05-07T11:50:14Z</time>
      </trkpt>
      <trkpt lat="48.39451" lon="2.54675">
        <ele>123.186157</ele>
        <time>2012-05-07T11:50:24Z</time>
      </trkpt>
      <trkpt lat="48.39455" lon="2.54661">
        <ele>122.705444</ele>
        <time>2012-05-07T11:50:32Z</time>
      </trkpt>
      <trkpt lat="48.39456" lon="2.54652">
        <ele>123.666748</ele>
        <time>2012-05-07T11:50:38Z</time>
      </trkpt>
      <trkpt lat="48.39458" lon="2.54636">
        <ele>123.666748</ele>
        <time>2012-05-07T11:50:46Z</time>
      </trkpt>
      <trkpt lat="48.39466" lon="2.54628">
        <ele>124.147339</ele>
        <time>2012-05-07T11:50:55Z</time>
      </trkpt>
      <trkpt lat="48.39473" lon="2.54623">
        <ele>124.628052</ele>
        <time>2012-05-07T11:51:03Z</time>
      </trkpt>
      <trkpt lat="48.39477" lon="2.54627">
        <ele>123.186157</ele>
        <time>2012-05-07T11:51:11Z</time>
      </trkpt>
      <trkpt lat="48.39481" lon="2.54634">
        <ele>121.26355</ele>
        <time>2012-05-07T11:51:20Z</time>
      </trkpt>
      <trkpt lat="48.39485" lon="2.54635">
        <ele>120.782837</ele>
        <time>2012-05-07T11:51:27Z</time>
      </trkpt>
      <trkpt lat="48.39492" lon="2.54631">
        <ele>121.744141</ele>
        <time>2012-05-07T11:51:35Z</time>
      </trkpt>
      <trkpt lat="48.39499" lon="2.54625">
        <ele>120.782837</ele>
        <time>2012-05-07T11:51:41Z</time>
      </trkpt>
      <trkpt lat="48.395" lon="2.54623">
        <ele>119.821411</ele>
        <time>2012-05-07T11:51:43Z</time>
      </trkpt>
      <trkpt lat="48.39506" lon="2.54613">
        <ele>121.26355</ele>
        <time>2012-05-07T11:51:52Z</time>
      </trkpt>
      <trkpt lat="48.39512" lon="2.54604">
        <ele>120.302124</ele>
        <time>2012-05-07T11:51:59Z</time>
      </trkpt>
      <trkpt lat="48.39516" lon="2.54594">
        <ele>121.744141</ele>
        <time>2012-05-07T11:52:06Z</time>
      </trkpt>
      <trkpt lat="48.39523" lon="2.54583">
        <ele>119.821411</ele>
        <time>2012-05-07T11:52:14Z</time>
      </trkpt>
      <trkpt lat="48.39524" lon="2.54581">
        <ele>120.302124</ele>
        <time>2012-05-07T11:52:16Z</time>
      </trkpt>
      <trkpt lat="48.3953" lon="2.54574">
        <ele>118.379395</ele>
        <time>2012-05-07T11:52:25Z</time>
      </trkpt>
      <trkpt lat="48.39532" lon="2.5457">
        <ele>116.9375</ele>
        <time>2012-05-07T11:52:32Z</time>
      </trkpt>
      <trkpt lat="48.39532" lon="2.54567">
        <ele>115.495605</ele>
        <time>2012-05-07T11:52:39Z</time>
      </trkpt>
      <trkpt lat="48.39536" lon="2.5456">
        <ele>114.053589</ele>
        <time>2012-05-07T11:52:47Z</time>
      </trkpt>
      <trkpt lat="48.39539" lon="2.54556">
        <ele>111.169556</ele>
        <time>2012-05-07T11:52:56Z</time>
      </trkpt>
      <trkpt lat="48.39541" lon="2.54558">
        <ele>110.208252</ele>
        <time>2012-05-07T11:53:04Z</time>
      </trkpt>
      <trkpt lat="48.39542" lon="2.54563">
        <ele>109.246948</ele>
        <time>2012-05-07T11:53:13Z</time>
      </trkpt>
      <trkpt lat="48.39546" lon="2.54564">
        <ele>107.805054</ele>
        <time>2012-05-07T11:53:20Z</time>
      </trkpt>
      <trkpt lat="48.39548" lon="2.5457">
        <ele>106.363037</ele>
        <time>2012-05-07T11:53:29Z</time>
      </trkpt>
      <trkpt lat="48.39549" lon="2.54577">
        <ele>105.401733</ele>
        <time>2012-05-07T11:53:37Z</time>
      </trkpt>
      <trkpt lat="48.39551" lon="2.54583">
        <ele>104.921021</ele>
        <time>2012-05-07T11:53:45Z</time>
      </trkpt>
      <trkpt lat="48.39553" lon="2.54591">
        <ele>102.998291</ele>
        <time>2012-05-07T11:53:55Z</time>
      </trkpt>
      <trkpt lat="48.39554" lon="2.54597">
        <ele>101.556396</ele>
        <time>2012-05-07T11:54:03Z</time>
      </trkpt>
      <trkpt lat="48.39554" lon="2.54602">
        <ele>100.595093</ele>
        <time>2012-05-07T11:54:12Z</time>
      </trkpt>
      <trkpt lat="48.39558" lon="2.54598">
        <ele>99.153076</ele>
        <time>2012-05-07T11:54:18Z</time>
      </trkpt>
      <trkpt lat="48.39563" lon="2.54595">
        <ele>98.191895</ele>
        <time>2012-05-07T11:54:25Z</time>
      </trkpt>
      <trkpt lat="48.39569" lon="2.54591">
        <ele>96.749878</ele>
        <time>2012-05-07T11:54:33Z</time>
      </trkpt>
      <trkpt lat="48.39573" lon="2.54587">
        <ele>95.307739</ele>
        <time>2012-05-07T11:54:43Z</time>
      </trkpt>
      <trkpt lat="48.39575" lon="2.54583">
        <ele>93.865845</ele>
        <time>2012-05-07T11:54:52Z</time>
      </trkpt>
      <trkpt lat="48.3958" lon="2.54579">
        <ele>92.42395</ele>
        <time>2012-05-07T11:55:00Z</time>
      </trkpt>
      <trkpt lat="48.39585" lon="2.54575">
        <ele>90.02063</ele>
        <time>2012-05-07T11:55:09Z</time>
      </trkpt>
      <trkpt lat="48.39589" lon="2.54571">
        <ele>89.539917</ele>
        <time>2012-05-07T11:55:15Z</time>
      </trkpt>
      <trkpt lat="48.3959" lon="2.54566">
        <ele>90.501343</ele>
        <time>2012-05-07T11:55:21Z</time>
      </trkpt>
      <trkpt lat="48.39593" lon="2.54562">
        <ele>91.943237</ele>
        <time>2012-05-07T11:55:25Z</time>
      </trkpt>
      <trkpt lat="48.39594" lon="2.54557">
        <ele>92.904541</ele>
        <time>2012-05-07T11:55:31Z</time>
      </trkpt>
      <trkpt lat="48.39589" lon="2.5455">
        <ele>93.385132</ele>
        <time>2012-05-07T11:55:39Z</time>
      </trkpt>
      <trkpt lat="48.39588" lon="2.5454">
        <ele>94.346558</ele>
        <time>2012-05-07T11:55:47Z</time>
      </trkpt>
      <trkpt lat="48.39586" lon="2.54532">
        <ele>95.788452</ele>
        <time>2012-05-07T11:55:55Z</time>
      </trkpt>
      <trkpt lat="48.39582" lon="2.54526">
        <ele>97.230469</ele>
        <time>2012-05-07T11:56:03Z</time>
      </trkpt>
      <trkpt lat="48.39578" lon="2.54522">
        <ele>98.672485</ele>
        <time>2012-05-07T11:56:11Z</time>
      </trkpt>
      <trkpt lat="48.39576" lon="2.54519">
        <ele>99.633789</ele>
        <time>2012-05-07T11:56:18Z</time>
      </trkpt>
      <trkpt lat="48.39572" lon="2.54512">
        <ele>100.595093</ele>
        <time>2012-05-07T11:56:27Z</time>
      </trkpt>
      <trkpt lat="48.39571" lon="2.54507">
        <ele>99.153076</ele>
        <time>2012-05-07T11:56:37Z</time>
      </trkpt>
      <trkpt lat="48.39574" lon="2.54502">
        <ele>98.191895</ele>
        <time>2012-05-07T11:56:46Z</time>
      </trkpt>
      <trkpt lat="48.39574" lon="2.54498">
        <ele>96.749878</ele>
        <time>2012-05-07T11:56:54Z</time>
      </trkpt>
      <trkpt lat="48.39574" lon="2.54487">
        <ele>95.307739</ele>
        <time>2012-05-07T11:57:01Z</time>
      </trkpt>
      <trkpt lat="48.39576" lon="2.5448">
        <ele>94.346558</ele>
        <time>2012-05-07T11:57:07Z</time>
      </trkpt>
      <trkpt lat="48.39577" lon="2.54473">
        <ele>95.788452</ele>
        <time>2012-05-07T11:57:14Z</time>
      </trkpt>
      <trkpt lat="48.39577" lon="2.54466">
        <ele>97.230469</ele>
        <time>2012-05-07T11:57:25Z</time>
      </trkpt>
      <trkpt lat="48.39571" lon="2.54463">
        <ele>97.711182</ele>
        <time>2012-05-07T11:57:34Z</time>
      </trkpt>
      <trkpt lat="48.39567" lon="2.54457">
        <ele>97.711182</ele>
        <time>2012-05-07T11:57:41Z</time>
      </trkpt>
      <trkpt lat="48.39565" lon="2.54453">
        <ele>99.633789</ele>
        <time>2012-05-07T11:57:48Z</time>
      </trkpt>
      <trkpt lat="48.39561" lon="2.54445">
        <ele>102.037109</ele>
        <time>2012-05-07T11:57:58Z</time>
      </trkpt>
      <trkpt lat="48.39563" lon="2.54435">
        <ele>101.556396</ele>
        <time>2012-05-07T11:58:04Z</time>
      </trkpt>
      <trkpt lat="48.39567" lon="2.54425">
        <ele>99.153076</ele>
        <time>2012-05-07T11:58:11Z</time>
      </trkpt>
      <trkpt lat="48.39574" lon="2.54414">
        <ele>97.230469</ele>
        <time>2012-05-07T11:58:19Z</time>
      </trkpt>
      <trkpt lat="48.39581" lon="2.54406">
        <ele>96.269287</ele>
        <time>2012-05-07T11:58:27Z</time>
      </trkpt>
      <trkpt lat="48.39586" lon="2.54399">
        <ele>95.788452</ele>
        <time>2012-05-07T11:58:33Z</time>
      </trkpt>
      <trkpt lat="48.39588" lon="2.54396">
        <ele>96.269287</ele>
        <time>2012-05-07T11:58:36Z</time>
      </trkpt>
      <trkpt lat="48.39595" lon="2.54385">
        <ele>97.230469</ele>
        <time>2012-05-07T11:58:45Z</time>
      </trkpt>
      <trkpt lat="48.39598" lon="2.54379">
        <ele>101.075684</ele>
        <time>2012-05-07T11:59:07Z</time>
      </trkpt>
      <trkpt lat="48.39601" lon="2.54373">
        <ele>100.595093</ele>
        <time>2012-05-07T11:59:14Z</time>
      </trkpt>
      <trkpt lat="48.39606" lon="2.54368">
        <ele>102.998291</ele>
        <time>2012-05-07T11:59:25Z</time>
      </trkpt>
      <trkpt lat="48.39607" lon="2.54362">
        <ele>103.479004</ele>
        <time>2012-05-07T11:59:32Z</time>
      </trkpt>
      <trkpt lat="48.39608" lon="2.54353">
        <ele>103.959717</ele>
        <time>2012-05-07T11:59:40Z</time>
      </trkpt>
      <trkpt lat="48.39611" lon="2.54345">
        <ele>104.921021</ele>
        <time>2012-05-07T11:59:46Z</time>
      </trkpt>
      <trkpt lat="48.39613" lon="2.54332">
        <ele>106.843628</ele>
        <time>2012-05-07T11:59:56Z</time>
      </trkpt>
      <trkpt lat="48.39614" lon="2.54326">
        <ele>109.727661</ele>
        <time>2012-05-07T12:00:07Z</time>
      </trkpt>
      <trkpt lat="48.39608" lon="2.5432">
        <ele>111.169556</ele>
        <time>2012-05-07T12:00:17Z</time>
      </trkpt>
      <trkpt lat="48.39603" lon="2.54316">
        <ele>112.130981</ele>
        <time>2012-05-07T12:00:24Z</time>
      </trkpt>
      <trkpt lat="48.39602" lon="2.54316">
        <ele>114.53418</ele>
        <time>2012-05-07T12:00:34Z</time>
      </trkpt>
      <trkpt lat="48.396" lon="2.54316">
        <ele>116.456787</ele>
        <time>2012-05-07T12:00:41Z</time>
      </trkpt>
      <trkpt lat="48.39592" lon="2.54316">
        <ele>118.379395</ele>
        <time>2012-05-07T12:00:50Z</time>
      </trkpt>
      <trkpt lat="48.39589" lon="2.54315">
        <ele>119.821411</ele>
        <time>2012-05-07T12:01:00Z</time>
      </trkpt>
      <trkpt lat="48.39583" lon="2.54314">
        <ele>122.224731</ele>
        <time>2012-05-07T12:01:11Z</time>
      </trkpt>
      <trkpt lat="48.39575" lon="2.54313">
        <ele>124.628052</ele>
        <time>2012-05-07T12:01:21Z</time>
      </trkpt>
      <trkpt lat="48.39568" lon="2.54316">
        <ele>125.108765</ele>
        <time>2012-05-07T12:01:29Z</time>
      </trkpt>
      <trkpt lat="48.39563" lon="2.54326">
        <ele>124.628052</ele>
        <time>2012-05-07T12:01:37Z</time>
      </trkpt>
      <trkpt lat="48.39558" lon="2.54333">
        <ele>123.666748</ele>
        <time>2012-05-07T12:01:46Z</time>
      </trkpt>
      <trkpt lat="48.39555" lon="2.54338">
        <ele>123.186157</ele>
        <time>2012-05-07T12:01:52Z</time>
      </trkpt>
      <trkpt lat="48.39555" lon="2.54342">
        <ele>123.186157</ele>
        <time>2012-05-07T12:02:00Z</time>
      </trkpt>
      <trkpt lat="48.39551" lon="2.54346">
        <ele>124.628052</ele>
        <time>2012-05-07T12:02:08Z</time>
      </trkpt>
      <trkpt lat="48.39547" lon="2.54346">
        <ele>125.589355</ele>
        <time>2012-05-07T12:02:13Z</time>
      </trkpt>
      <trkpt lat="48.39544" lon="2.54349">
        <ele>125.108765</ele>
        <time>2012-05-07T12:02:21Z</time>
      </trkpt>
      <trkpt lat="48.39542" lon="2.54355">
        <ele>122.705444</ele>
        <time>2012-05-07T12:02:30Z</time>
      </trkpt>
      <trkpt lat="48.3954" lon="2.5436">
        <ele>121.744141</ele>
        <time>2012-05-07T12:02:38Z</time>
      </trkpt>
      <trkpt lat="48.39538" lon="2.54363">
        <ele>119.34082</ele>
        <time>2012-05-07T12:02:43Z</time>
      </trkpt>
      <trkpt lat="48.39534" lon="2.54366">
        <ele>118.860107</ele>
        <time>2012-05-07T12:02:50Z</time>
      </trkpt>
      <trkpt lat="48.39536" lon="2.54365">
        <ele>119.34082</ele>
        <time>2012-05-07T12:02:57Z</time>
      </trkpt>
      <trkpt lat="48.39533" lon="2.54366">
        <ele>119.34082</ele>
        <time>2012-05-07T12:03:07Z</time>
      </trkpt>
      <trkpt lat="48.39529" lon="2.54361">
        <ele>121.26355</ele>
        <time>2012-05-07T12:03:14Z</time>
      </trkpt>
      <trkpt lat="48.39528" lon="2.54354">
        <ele>121.26355</ele>
        <time>2012-05-07T12:03:21Z</time>
      </trkpt>
      <trkpt lat="48.39527" lon="2.54345">
        <ele>123.666748</ele>
        <time>2012-05-07T12:03:28Z</time>
      </trkpt>
      <trkpt lat="48.39526" lon="2.54341">
        <ele>125.108765</ele>
        <time>2012-05-07T12:03:31Z</time>
      </trkpt>
      <trkpt lat="48.39528" lon="2.54336">
        <ele>125.108765</ele>
        <time>2012-05-07T12:03:35Z</time>
      </trkpt>
      <trkpt lat="48.39528" lon="2.54324">
        <ele>125.589355</ele>
        <time>2012-05-07T12:03:42Z</time>
      </trkpt>
      <trkpt lat="48.3953" lon="2.54311">
        <ele>125.108765</ele>
        <time>2012-05-07T12:03:49Z</time>
      </trkpt>
      <trkpt lat="48.39529" lon="2.543">
        <ele>126.069946</ele>
        <time>2012-05-07T12:03:56Z</time>
      </trkpt>
      <trkpt lat="48.39531" lon="2.5429">
        <ele>126.069946</ele>
        <time>2012-05-07T12:04:03Z</time>
      </trkpt>
      <trkpt lat="48.39532" lon="2.54274">
        <ele>126.069946</ele>
        <time>2012-05-07T12:04:12Z</time>
      </trkpt>
      <trkpt lat="48.39533" lon="2.54266">
        <ele>126.550659</ele>
        <time>2012-05-07T12:04:17Z</time>
      </trkpt>
      <trkpt lat="48.39538" lon="2.54247">
        <ele>126.069946</ele>
        <time>2012-05-07T12:04:28Z</time>
      </trkpt>
      <trkpt lat="48.39539" lon="2.54244">
        <ele>126.069946</ele>
        <time>2012-05-07T12:04:30Z</time>
      </trkpt>
      <trkpt lat="48.39545" lon="2.54231">
        <ele>125.589355</ele>
        <time>2012-05-07T12:04:39Z</time>
      </trkpt>
      <trkpt lat="48.39552" lon="2.54205">
        <ele>125.589355</ele>
        <time>2012-05-07T12:04:52Z</time>
      </trkpt>
      <trkpt lat="48.3956" lon="2.5419">
        <ele>125.108765</ele>
        <time>2012-05-07T12:05:02Z</time>
      </trkpt>
      <trkpt lat="48.39565" lon="2.54182">
        <ele>125.108765</ele>
        <time>2012-05-07T12:05:08Z</time>
      </trkpt>
      <trkpt lat="48.39569" lon="2.54179">
        <ele>125.589355</ele>
        <time>2012-05-07T12:05:12Z</time>
      </trkpt>
      <trkpt lat="48.39574" lon="2.54176">
        <ele>124.628052</ele>
        <time>2012-05-07T12:05:16Z</time>
      </trkpt>
      <trkpt lat="48.3958" lon="2.54164">
        <ele>125.108765</ele>
        <time>2012-05-07T12:05:26Z</time>
      </trkpt>
      <trkpt lat="48.39586" lon="2.54155">
        <ele>122.224731</ele>
        <time>2012-05-07T12:05:34Z</time>
      </trkpt>
      <trkpt lat="48.39587" lon="2.54148">
        <ele>122.224731</ele>
        <time>2012-05-07T12:05:42Z</time>
      </trkpt>
      <trkpt lat="48.39587" lon="2.54137">
        <ele>120.782837</ele>
        <time>2012-05-07T12:05:50Z</time>
      </trkpt>
      <trkpt lat="48.39589" lon="2.54129">
        <ele>120.782837</ele>
        <time>2012-05-07T12:05:56Z</time>
      </trkpt>
      <trkpt lat="48.39591" lon="2.54121">
        <ele>120.302124</ele>
        <time>2012-05-07T12:06:01Z</time>
      </trkpt>
      <trkpt lat="48.39596" lon="2.54112">
        <ele>121.26355</ele>
        <time>2012-05-07T12:06:09Z</time>
      </trkpt>
      <trkpt lat="48.39598" lon="2.54102">
        <ele>122.705444</ele>
        <time>2012-05-07T12:06:17Z</time>
      </trkpt>
      <trkpt lat="48.396" lon="2.54095">
        <ele>122.224731</ele>
        <time>2012-05-07T12:06:25Z</time>
      </trkpt>
      <trkpt lat="48.39602" lon="2.5409">
        <ele>121.26355</ele>
        <time>2012-05-07T12:06:30Z</time>
      </trkpt>
      <trkpt lat="48.39605" lon="2.54082">
        <ele>121.26355</ele>
        <time>2012-05-07T12:06:37Z</time>
      </trkpt>
      <trkpt lat="48.39605" lon="2.54075">
        <ele>121.26355</ele>
        <time>2012-05-07T12:06:44Z</time>
      </trkpt>
      <trkpt lat="48.39606" lon="2.54066">
        <ele>119.821411</ele>
        <time>2012-05-07T12:06:50Z</time>
      </trkpt>
      <trkpt lat="48.39608" lon="2.54059">
        <ele>120.782837</ele>
        <time>2012-05-07T12:06:56Z</time>
      </trkpt>
      <trkpt lat="48.39613" lon="2.54056">
        <ele>120.782837</ele>
        <time>2012-05-07T12:07:03Z</time>
      </trkpt>
      <trkpt lat="48.39617" lon="2.54056">
        <ele>118.860107</ele>
        <time>2012-05-07T12:07:11Z</time>
      </trkpt>
      <trkpt lat="48.39623" lon="2.5405">
        <ele>119.34082</ele>
        <time>2012-05-07T12:07:18Z</time>
      </trkpt>
      <trkpt lat="48.39627" lon="2.54045">
        <ele>119.34082</ele>
        <time>2012-05-07T12:07:25Z</time>
      </trkpt>
      <trkpt lat="48.39627" lon="2.54031">
        <ele>119.821411</ele>
        <time>2012-05-07T12:07:35Z</time>
      </trkpt>
      <trkpt lat="48.3963" lon="2.54022">
        <ele>118.860107</ele>
        <time>2012-05-07T12:07:41Z</time>
      </trkpt>
      <trkpt lat="48.3963" lon="2.54014">
        <ele>119.34082</ele>
        <time>2012-05-07T12:07:48Z</time>
      </trkpt>
      <trkpt lat="48.39624" lon="2.54012">
        <ele>120.782837</ele>
        <time>2012-05-07T12:07:57Z</time>
      </trkpt>
      <trkpt lat="48.39622" lon="2.54007">
        <ele>122.705444</ele>
        <time>2012-05-07T12:08:05Z</time>
      </trkpt>
      <trkpt lat="48.39619" lon="2.54006">
        <ele>123.666748</ele>
        <time>2012-05-07T12:08:08Z</time>
      </trkpt>
      <trkpt lat="48.39614" lon="2.54001">
        <ele>124.147339</ele>
        <time>2012-05-07T12:08:13Z</time>
      </trkpt>
      <trkpt lat="48.39612" lon="2.53999">
        <ele>123.666748</ele>
        <time>2012-05-07T12:08:15Z</time>
      </trkpt>
      <trkpt lat="48.39602" lon="2.53986">
        <ele>124.147339</ele>
        <time>2012-05-07T12:08:24Z</time>
      </trkpt>
      <trkpt lat="48.39598" lon="2.53978">
        <ele>123.666748</ele>
        <time>2012-05-07T12:08:32Z</time>
      </trkpt>
      <trkpt lat="48.39598" lon="2.53967">
        <ele>123.666748</ele>
        <time>2012-05-07T12:08:39Z</time>
      </trkpt>
      <trkpt lat="48.39602" lon="2.53949">
        <ele>123.666748</ele>
        <time>2012-05-07T12:08:48Z</time>
      </trkpt>
      <trkpt lat="48.39602" lon="2.53931">
        <ele>122.705444</ele>
        <time>2012-05-07T12:08:58Z</time>
      </trkpt>
      <trkpt lat="48.396" lon="2.53919">
        <ele>122.224731</ele>
        <time>2012-05-07T12:09:06Z</time>
      </trkpt>
      <trkpt lat="48.39601" lon="2.53907">
        <ele>121.744141</ele>
        <time>2012-05-07T12:09:16Z</time>
      </trkpt>
      <trkpt lat="48.39602" lon="2.539">
        <ele>122.224731</ele>
        <time>2012-05-07T12:09:23Z</time>
      </trkpt>
      <trkpt lat="48.39605" lon="2.53895">
        <ele>120.782837</ele>
        <time>2012-05-07T12:09:28Z</time>
      </trkpt>
      <trkpt lat="48.39609" lon="2.53887">
        <ele>119.821411</ele>
        <time>2012-05-07T12:09:37Z</time>
      </trkpt>
      <trkpt lat="48.39613" lon="2.53882">
        <ele>118.379395</ele>
        <time>2012-05-07T12:09:43Z</time>
      </trkpt>
      <trkpt lat="48.39615" lon="2.53875">
        <ele>116.9375</ele>
        <time>2012-05-07T12:09:50Z</time>
      </trkpt>
      <trkpt lat="48.39616" lon="2.5387">
        <ele>116.456787</ele>
        <time>2012-05-07T12:09:56Z</time>
      </trkpt>
      <trkpt lat="48.3962" lon="2.53866">
        <ele>115.976196</ele>
        <time>2012-05-07T12:10:03Z</time>
      </trkpt>
      <trkpt lat="48.39628" lon="2.53862">
        <ele>116.9375</ele>
        <time>2012-05-07T12:10:10Z</time>
      </trkpt>
      <trkpt lat="48.39631" lon="2.53862">
        <ele>119.34082</ele>
        <time>2012-05-07T12:10:17Z</time>
      </trkpt>
      <trkpt lat="48.39636" lon="2.53858">
        <ele>121.26355</ele>
        <time>2012-05-07T12:10:24Z</time>
      </trkpt>
      <trkpt lat="48.39638" lon="2.53854">
        <ele>122.705444</ele>
        <time>2012-05-07T12:10:31Z</time>
      </trkpt>
      <trkpt lat="48.39641" lon="2.53848">
        <ele>122.705444</ele>
        <time>2012-05-07T12:10:40Z</time>
      </trkpt>
      <trkpt lat="48.39643" lon="2.53838">
        <ele>123.186157</ele>
        <time>2012-05-07T12:10:48Z</time>
      </trkpt>
      <trkpt lat="48.39643" lon="2.53832">
        <ele>123.186157</ele>
        <time>2012-05-07T12:10:56Z</time>
      </trkpt>
      <trkpt lat="48.39645" lon="2.53818">
        <ele>124.147339</ele>
        <time>2012-05-07T12:11:06Z</time>
      </trkpt>
      <trkpt lat="48.39645" lon="2.53811">
        <ele>124.147339</ele>
        <time>2012-05-07T12:11:13Z</time>
      </trkpt>
      <trkpt lat="48.39646" lon="2.53805">
        <ele>124.628052</ele>
        <time>2012-05-07T12:11:16Z</time>
      </trkpt>
      <trkpt lat="48.39652" lon="2.53795">
        <ele>123.666748</ele>
        <time>2012-05-07T12:11:22Z</time>
      </trkpt>
      <trkpt lat="48.39652" lon="2.53776">
        <ele>124.147339</ele>
        <time>2012-05-07T12:11:32Z</time>
      </trkpt>
      <trkpt lat="48.39651" lon="2.53771">
        <ele>124.147339</ele>
        <time>2012-05-07T12:11:35Z</time>
      </trkpt>
      <trkpt lat="48.39651" lon="2.53762">
        <ele>124.147339</ele>
        <time>2012-05-07T12:11:43Z</time>
      </trkpt>
      <trkpt lat="48.39649" lon="2.53756">
        <ele>124.147339</ele>
        <time>2012-05-07T12:11:47Z</time>
      </trkpt>
      <trkpt lat="48.39646" lon="2.53737">
        <ele>123.666748</ele>
        <time>2012-05-07T12:11:57Z</time>
      </trkpt>
      <trkpt lat="48.39646" lon="2.53729">
        <ele>123.666748</ele>
        <time>2012-05-07T12:12:01Z</time>
      </trkpt>
      <trkpt lat="48.39647" lon="2.5372">
        <ele>123.666748</ele>
        <time>2012-05-07T12:12:06Z</time>
      </trkpt>
      <trkpt lat="48.39646" lon="2.53716">
        <ele>123.666748</ele>
        <time>2012-05-07T12:12:09Z</time>
      </trkpt>
      <trkpt lat="48.39643" lon="2.53697">
        <ele>123.186157</ele>
        <time>2012-05-07T12:12:18Z</time>
      </trkpt>
      <trkpt lat="48.39645" lon="2.53679">
        <ele>123.186157</ele>
        <time>2012-05-07T12:12:27Z</time>
      </trkpt>
      <trkpt lat="48.39646" lon="2.53675">
        <ele>124.147339</ele>
        <time>2012-05-07T12:12:31Z</time>
      </trkpt>
      <trkpt lat="48.39648" lon="2.53663">
        <ele>123.666748</ele>
        <time>2012-05-07T12:12:38Z</time>
      </trkpt>
      <trkpt lat="48.39648" lon="2.5366">
        <ele>123.666748</ele>
        <time>2012-05-07T12:12:40Z</time>
      </trkpt>
      <trkpt lat="48.39649" lon="2.53656">
        <ele>123.186157</ele>
        <time>2012-05-07T12:12:43Z</time>
      </trkpt>
      <trkpt lat="48.39657" lon="2.53652">
        <ele>122.705444</ele>
        <time>2012-05-07T12:12:49Z</time>
      </trkpt>
      <trkpt lat="48.39662" lon="2.53648">
        <ele>122.224731</ele>
        <time>2012-05-07T12:12:53Z</time>
      </trkpt>
      <trkpt lat="48.3967" lon="2.53637">
        <ele>122.705444</ele>
        <time>2012-05-07T12:13:01Z</time>
      </trkpt>
      <trkpt lat="48.39679" lon="2.53635">
        <ele>122.224731</ele>
        <time>2012-05-07T12:13:09Z</time>
      </trkpt>
      <trkpt lat="48.39684" lon="2.53628">
        <ele>123.186157</ele>
        <time>2012-05-07T12:13:15Z</time>
      </trkpt>
      <trkpt lat="48.39686" lon="2.53624">
        <ele>123.666748</ele>
        <time>2012-05-07T12:13:19Z</time>
      </trkpt>
      <trkpt lat="48.39689" lon="2.53608">
        <ele>123.186157</ele>
        <time>2012-05-07T12:13:27Z</time>
      </trkpt>
      <trkpt lat="48.39692" lon="2.53597">
        <ele>123.666748</ele>
        <time>2012-05-07T12:13:35Z</time>
      </trkpt>
      <trkpt lat="48.39692" lon="2.53589">
        <ele>124.147339</ele>
        <time>2012-05-07T12:13:41Z</time>
      </trkpt>
      <trkpt lat="48.39692" lon="2.53585">
        <ele>123.666748</ele>
        <time>2012-05-07T12:13:43Z</time>
      </trkpt>
      <trkpt lat="48.3969" lon="2.53575">
        <ele>124.147339</ele>
        <time>2012-05-07T12:13:49Z</time>
      </trkpt>
      <trkpt lat="48.39686" lon="2.53562">
        <ele>124.147339</ele>
        <time>2012-05-07T12:13:58Z</time>
      </trkpt>
      <trkpt lat="48.39686" lon="2.53547">
        <ele>123.666748</ele>
        <time>2012-05-07T12:14:05Z</time>
      </trkpt>
      <trkpt lat="48.39686" lon="2.53543">
        <ele>123.666748</ele>
        <time>2012-05-07T12:14:07Z</time>
      </trkpt>
      <trkpt lat="48.39686" lon="2.53539">
        <ele>123.186157</ele>
        <time>2012-05-07T12:14:09Z</time>
      </trkpt>
      <trkpt lat="48.39688" lon="2.53529">
        <ele>123.186157</ele>
        <time>2012-05-07T12:14:13Z</time>
      </trkpt>
      <trkpt lat="48.39691" lon="2.53512">
        <ele>123.186157</ele>
        <time>2012-05-07T12:14:23Z</time>
      </trkpt>
      <trkpt lat="48.39695" lon="2.53493">
        <ele>123.186157</ele>
        <time>2012-05-07T12:14:32Z</time>
      </trkpt>
      <trkpt lat="48.39696" lon="2.53485">
        <ele>122.705444</ele>
        <time>2012-05-07T12:14:39Z</time>
      </trkpt>
      <trkpt lat="48.39698" lon="2.53473">
        <ele>122.224731</ele>
        <time>2012-05-07T12:14:46Z</time>
      </trkpt>
      <trkpt lat="48.39701" lon="2.53458">
        <ele>122.224731</ele>
        <time>2012-05-07T12:14:55Z</time>
      </trkpt>
      <trkpt lat="48.39705" lon="2.53446">
        <ele>122.224731</ele>
        <time>2012-05-07T12:15:03Z</time>
      </trkpt>
      <trkpt lat="48.39715" lon="2.5342">
        <ele>121.744141</ele>
        <time>2012-05-07T12:15:15Z</time>
      </trkpt>
      <trkpt lat="48.39721" lon="2.53404">
        <ele>121.744141</ele>
        <time>2012-05-07T12:15:24Z</time>
      </trkpt>
      <trkpt lat="48.39727" lon="2.53387">
        <ele>122.224731</ele>
        <time>2012-05-07T12:15:34Z</time>
      </trkpt>
      <trkpt lat="48.3973" lon="2.53381">
        <ele>122.224731</ele>
        <time>2012-05-07T12:15:37Z</time>
      </trkpt>
      <trkpt lat="48.39734" lon="2.53364">
        <ele>122.705444</ele>
        <time>2012-05-07T12:15:47Z</time>
      </trkpt>
      <trkpt lat="48.39735" lon="2.5336">
        <ele>122.224731</ele>
        <time>2012-05-07T12:15:49Z</time>
      </trkpt>
      <trkpt lat="48.39743" lon="2.53338">
        <ele>121.744141</ele>
        <time>2012-05-07T12:16:02Z</time>
      </trkpt>
      <trkpt lat="48.39746" lon="2.53323">
        <ele>121.744141</ele>
        <time>2012-05-07T12:16:11Z</time>
      </trkpt>
      <trkpt lat="48.39749" lon="2.53315">
        <ele>122.224731</ele>
        <time>2012-05-07T12:16:17Z</time>
      </trkpt>
      <trkpt lat="48.3975" lon="2.53312">
        <ele>122.705444</ele>
        <time>2012-05-07T12:16:19Z</time>
      </trkpt>
      <trkpt lat="48.39752" lon="2.53297">
        <ele>123.186157</ele>
        <time>2012-05-07T12:16:28Z</time>
      </trkpt>
      <trkpt lat="48.39753" lon="2.53275">
        <ele>123.666748</ele>
        <time>2012-05-07T12:16:39Z</time>
      </trkpt>
      <trkpt lat="48.39749" lon="2.53258">
        <ele>123.666748</ele>
        <time>2012-05-07T12:16:49Z</time>
      </trkpt>
      <trkpt lat="48.39746" lon="2.53241">
        <ele>123.666748</ele>
        <time>2012-05-07T12:16:59Z</time>
      </trkpt>
      <trkpt lat="48.39745" lon="2.53223">
        <ele>123.186157</ele>
        <time>2012-05-07T12:17:09Z</time>
      </trkpt>
      <trkpt lat="48.39747" lon="2.53213">
        <ele>121.26355</ele>
        <time>2012-05-07T12:17:17Z</time>
      </trkpt>
      <trkpt lat="48.39747" lon="2.53201">
        <ele>122.705444</ele>
        <time>2012-05-07T12:17:27Z</time>
      </trkpt>
      <trkpt lat="48.39747" lon="2.53197">
        <ele>123.666748</ele>
        <time>2012-05-07T12:17:32Z</time>
      </trkpt>
      <trkpt lat="48.39747" lon="2.53189">
        <ele>124.628052</ele>
        <time>2012-05-07T12:17:41Z</time>
      </trkpt>
      <trkpt lat="48.39743" lon="2.53182">
        <ele>124.628052</ele>
        <time>2012-05-07T12:17:49Z</time>
      </trkpt>
      <trkpt lat="48.39737" lon="2.53179">
        <ele>124.147339</ele>
        <time>2012-05-07T12:17:54Z</time>
      </trkpt>
      <trkpt lat="48.39725" lon="2.53174">
        <ele>124.147339</ele>
        <time>2012-05-07T12:18:03Z</time>
      </trkpt>
      <trkpt lat="48.39724" lon="2.53162">
        <ele>124.628052</ele>
        <time>2012-05-07T12:18:11Z</time>
      </trkpt>
      <trkpt lat="48.39721" lon="2.53159">
        <ele>124.628052</ele>
        <time>2012-05-07T12:18:18Z</time>
      </trkpt>
      <trkpt lat="48.39716" lon="2.53154">
        <ele>124.147339</ele>
        <time>2012-05-07T12:18:23Z</time>
      </trkpt>
      <trkpt lat="48.39705" lon="2.53152">
        <ele>124.628052</ele>
        <time>2012-05-07T12:18:31Z</time>
      </trkpt>
      <trkpt lat="48.39697" lon="2.53144">
        <ele>124.628052</ele>
        <time>2012-05-07T12:18:39Z</time>
      </trkpt>
      <trkpt lat="48.39696" lon="2.53142">
        <ele>124.628052</ele>
        <time>2012-05-07T12:18:40Z</time>
      </trkpt>
      <trkpt lat="48.39694" lon="2.53128">
        <ele>124.628052</ele>
        <time>2012-05-07T12:18:48Z</time>
      </trkpt>
      <trkpt lat="48.39687" lon="2.53118">
        <ele>124.147339</ele>
        <time>2012-05-07T12:18:56Z</time>
      </trkpt>
      <trkpt lat="48.39683" lon="2.53103">
        <ele>124.147339</ele>
        <time>2012-05-07T12:19:05Z</time>
      </trkpt>
      <trkpt lat="48.3968" lon="2.53092">
        <ele>124.147339</ele>
        <time>2012-05-07T12:19:12Z</time>
      </trkpt>
      <trkpt lat="48.39675" lon="2.5308">
        <ele>124.147339</ele>
        <time>2012-05-07T12:19:21Z</time>
      </trkpt>
      <trkpt lat="48.39673" lon="2.53075">
        <ele>124.147339</ele>
        <time>2012-05-07T12:19:25Z</time>
      </trkpt>
      <trkpt lat="48.39669" lon="2.53067">
        <ele>123.666748</ele>
        <time>2012-05-07T12:19:30Z</time>
      </trkpt>
      <trkpt lat="48.39663" lon="2.5305">
        <ele>123.666748</ele>
        <time>2012-05-07T12:19:41Z</time>
      </trkpt>
      <trkpt lat="48.39663" lon="2.53038">
        <ele>123.666748</ele>
        <time>2012-05-07T12:19:48Z</time>
      </trkpt>
      <trkpt lat="48.39664" lon="2.53023">
        <ele>123.186157</ele>
        <time>2012-05-07T12:19:56Z</time>
      </trkpt>
      <trkpt lat="48.39667" lon="2.53013">
        <ele>123.666748</ele>
        <time>2012-05-07T12:20:04Z</time>
      </trkpt>
      <trkpt lat="48.39673" lon="2.52999">
        <ele>123.666748</ele>
        <time>2012-05-07T12:20:14Z</time>
      </trkpt>
      <trkpt lat="48.39674" lon="2.52993">
        <ele>123.666748</ele>
        <time>2012-05-07T12:20:22Z</time>
      </trkpt>
      <trkpt lat="48.39674" lon="2.5299">
        <ele>123.186157</ele>
        <time>2012-05-07T12:23:54Z</time>
      </trkpt>
      <trkpt lat="48.39676" lon="2.52991">
        <ele>123.666748</ele>
        <time>2012-05-07T12:23:57Z</time>
      </trkpt>
      <trkpt lat="48.39681" lon="2.52987">
        <ele>123.666748</ele>
        <time>2012-05-07T12:24:02Z</time>
      </trkpt>
      <trkpt lat="48.39686" lon="2.52988">
        <ele>123.666748</ele>
        <time>2012-05-07T12:24:07Z</time>
      </trkpt>
      <trkpt lat="48.39692" lon="2.52989">
        <ele>124.147339</ele>
        <time>2012-05-07T12:24:13Z</time>
      </trkpt>
      <trkpt lat="48.39696" lon="2.52988">
        <ele>124.628052</ele>
        <time>2012-05-07T12:24:18Z</time>
      </trkpt>
      <trkpt lat="48.397" lon="2.52986">
        <ele>124.628052</ele>
        <time>2012-05-07T12:24:22Z</time>
      </trkpt>
      <trkpt lat="48.39704" lon="2.5297">
        <ele>125.108765</ele>
        <time>2012-05-07T12:24:32Z</time>
      </trkpt>
      <trkpt lat="48.39705" lon="2.52964">
        <ele>125.108765</ele>
        <time>2012-05-07T12:24:36Z</time>
      </trkpt>
      <trkpt lat="48.39712" lon="2.52952">
        <ele>125.589355</ele>
        <time>2012-05-07T12:24:45Z</time>
      </trkpt>
      <trkpt lat="48.39713" lon="2.52951">
        <ele>125.108765</ele>
        <time>2012-05-07T12:24:46Z</time>
      </trkpt>
      <trkpt lat="48.39721" lon="2.52954">
        <ele>125.108765</ele>
        <time>2012-05-07T12:24:53Z</time>
      </trkpt>
      <trkpt lat="48.39724" lon="2.5296">
        <ele>125.108765</ele>
        <time>2012-05-07T12:24:58Z</time>
      </trkpt>
      <trkpt lat="48.39727" lon="2.52962">
        <ele>124.628052</ele>
        <time>2012-05-07T12:25:01Z</time>
      </trkpt>
      <trkpt lat="48.39738" lon="2.52958">
        <ele>124.628052</ele>
        <time>2012-05-07T12:25:10Z</time>
      </trkpt>
      <trkpt lat="48.3974" lon="2.52957">
        <ele>124.628052</ele>
        <time>2012-05-07T12:25:12Z</time>
      </trkpt>
      <trkpt lat="48.39747" lon="2.52955">
        <ele>126.069946</ele>
        <time>2012-05-07T12:25:21Z</time>
      </trkpt>
      <trkpt lat="48.3975" lon="2.52946">
        <ele>126.550659</ele>
        <time>2012-05-07T12:25:28Z</time>
      </trkpt>
      <trkpt lat="48.39754" lon="2.52939">
        <ele>126.069946</ele>
        <time>2012-05-07T12:25:33Z</time>
      </trkpt>
      <trkpt lat="48.39757" lon="2.52931">
        <ele>126.069946</ele>
        <time>2012-05-07T12:25:39Z</time>
      </trkpt>
      <trkpt lat="48.39757" lon="2.52925">
        <ele>125.589355</ele>
        <time>2012-05-07T12:25:43Z</time>
      </trkpt>
      <trkpt lat="48.39756" lon="2.52916">
        <ele>124.628052</ele>
        <time>2012-05-07T12:25:49Z</time>
      </trkpt>
      <trkpt lat="48.39762" lon="2.52908">
        <ele>125.108765</ele>
        <time>2012-05-07T12:25:56Z</time>
      </trkpt>
      <trkpt lat="48.39768" lon="2.52901">
        <ele>124.628052</ele>
        <time>2012-05-07T12:26:03Z</time>
      </trkpt>
      <trkpt lat="48.39774" lon="2.52891">
        <ele>125.108765</ele>
        <time>2012-05-07T12:26:09Z</time>
      </trkpt>
      <trkpt lat="48.39773" lon="2.52875">
        <ele>124.628052</ele>
        <time>2012-05-07T12:26:20Z</time>
      </trkpt>
      <trkpt lat="48.39774" lon="2.52869">
        <ele>123.186157</ele>
        <time>2012-05-07T12:26:26Z</time>
      </trkpt>
      <trkpt lat="48.39779" lon="2.52864">
        <ele>123.186157</ele>
        <time>2012-05-07T12:26:32Z</time>
      </trkpt>
      <trkpt lat="48.39783" lon="2.52861">
        <ele>122.224731</ele>
        <time>2012-05-07T12:26:40Z</time>
      </trkpt>
      <trkpt lat="48.39786" lon="2.5286">
        <ele>121.744141</ele>
        <time>2012-05-07T12:26:46Z</time>
      </trkpt>
      <trkpt lat="48.3979" lon="2.52855">
        <ele>122.224731</ele>
        <time>2012-05-07T12:26:53Z</time>
      </trkpt>
      <trkpt lat="48.39793" lon="2.52851">
        <ele>122.224731</ele>
        <time>2012-05-07T12:27:00Z</time>
      </trkpt>
      <trkpt lat="48.39799" lon="2.52845">
        <ele>122.705444</ele>
        <time>2012-05-07T12:27:07Z</time>
      </trkpt>
      <trkpt lat="48.39809" lon="2.52841">
        <ele>123.186157</ele>
        <time>2012-05-07T12:27:18Z</time>
      </trkpt>
      <trkpt lat="48.39815" lon="2.52842">
        <ele>124.147339</ele>
        <time>2012-05-07T12:27:25Z</time>
      </trkpt>
      <trkpt lat="48.3982" lon="2.52846">
        <ele>124.147339</ele>
        <time>2012-05-07T12:27:32Z</time>
      </trkpt>
      <trkpt lat="48.39831" lon="2.52848">
        <ele>123.666748</ele>
        <time>2012-05-07T12:27:41Z</time>
      </trkpt>
      <trkpt lat="48.39833" lon="2.52845">
        <ele>123.666748</ele>
        <time>2012-05-07T12:27:43Z</time>
      </trkpt>
      <trkpt lat="48.39835" lon="2.52835">
        <ele>124.147339</ele>
        <time>2012-05-07T12:27:52Z</time>
      </trkpt>
      <trkpt lat="48.39837" lon="2.52828">
        <ele>123.666748</ele>
        <time>2012-05-07T12:28:00Z</time>
      </trkpt>
      <trkpt lat="48.39838" lon="2.52822">
        <ele>123.186157</ele>
        <time>2012-05-07T12:28:04Z</time>
      </trkpt>
      <trkpt lat="48.39837" lon="2.52809">
        <ele>123.186157</ele>
        <time>2012-05-07T12:28:12Z</time>
      </trkpt>
      <trkpt lat="48.39833" lon="2.52802">
        <ele>123.666748</ele>
        <time>2012-05-07T12:28:20Z</time>
      </trkpt>
      <trkpt lat="48.39834" lon="2.52792">
        <ele>122.705444</ele>
        <time>2012-05-07T12:28:27Z</time>
      </trkpt>
      <trkpt lat="48.39831" lon="2.52778">
        <ele>122.705444</ele>
        <time>2012-05-07T12:28:36Z</time>
      </trkpt>
      <trkpt lat="48.39825" lon="2.5277">
        <ele>123.186157</ele>
        <time>2012-05-07T12:28:45Z</time>
      </trkpt>
      <trkpt lat="48.39821" lon="2.52767">
        <ele>123.666748</ele>
        <time>2012-05-07T12:28:51Z</time>
      </trkpt>
      <trkpt lat="48.39818" lon="2.5276">
        <ele>123.666748</ele>
        <time>2012-05-07T12:28:57Z</time>
      </trkpt>
      <trkpt lat="48.39815" lon="2.52751">
        <ele>124.147339</ele>
        <time>2012-05-07T12:29:04Z</time>
      </trkpt>
      <trkpt lat="48.39814" lon="2.52747">
        <ele>124.147339</ele>
        <time>2012-05-07T12:29:06Z</time>
      </trkpt>
      <trkpt lat="48.39812" lon="2.52737">
        <ele>124.147339</ele>
        <time>2012-05-07T12:29:13Z</time>
      </trkpt>
      <trkpt lat="48.39804" lon="2.52735">
        <ele>124.147339</ele>
        <time>2012-05-07T12:29:22Z</time>
      </trkpt>
      <trkpt lat="48.398" lon="2.52736">
        <ele>124.147339</ele>
        <time>2012-05-07T12:29:29Z</time>
      </trkpt>
      <trkpt lat="48.39793" lon="2.52729">
        <ele>123.666748</ele>
        <time>2012-05-07T12:29:37Z</time>
      </trkpt>
      <trkpt lat="48.39785" lon="2.52722">
        <ele>124.628052</ele>
        <time>2012-05-07T12:29:45Z</time>
      </trkpt>
      <trkpt lat="48.3978" lon="2.52712">
        <ele>124.147339</ele>
        <time>2012-05-07T12:29:53Z</time>
      </trkpt>
      <trkpt lat="48.39779" lon="2.52706">
        <ele>124.147339</ele>
        <time>2012-05-07T12:29:59Z</time>
      </trkpt>
      <trkpt lat="48.3978" lon="2.52697">
        <ele>123.666748</ele>
        <time>2012-05-07T12:30:05Z</time>
      </trkpt>
      <trkpt lat="48.39787" lon="2.52685">
        <ele>124.147339</ele>
        <time>2012-05-07T12:30:15Z</time>
      </trkpt>
      <trkpt lat="48.39788" lon="2.52677">
        <ele>124.147339</ele>
        <time>2012-05-07T12:30:22Z</time>
      </trkpt>
      <trkpt lat="48.3979" lon="2.52672">
        <ele>124.147339</ele>
        <time>2012-05-07T12:30:25Z</time>
      </trkpt>
      <trkpt lat="48.39789" lon="2.52653">
        <ele>123.666748</ele>
        <time>2012-05-07T12:30:36Z</time>
      </trkpt>
      <trkpt lat="48.39789" lon="2.52646">
        <ele>123.186157</ele>
        <time>2012-05-07T12:30:41Z</time>
      </trkpt>
      <trkpt lat="48.39794" lon="2.52639">
        <ele>123.186157</ele>
        <time>2012-05-07T12:30:50Z</time>
      </trkpt>
      <trkpt lat="48.39799" lon="2.52631">
        <ele>123.666748</ele>
        <time>2012-05-07T12:30:59Z</time>
      </trkpt>
      <trkpt lat="48.39802" lon="2.52619">
        <ele>124.628052</ele>
        <time>2012-05-07T12:31:06Z</time>
      </trkpt>
      <trkpt lat="48.39805" lon="2.52609">
        <ele>124.147339</ele>
        <time>2012-05-07T12:31:13Z</time>
      </trkpt>
      <trkpt lat="48.39806" lon="2.52607">
        <ele>123.666748</ele>
        <time>2012-05-07T12:31:15Z</time>
      </trkpt>
      <trkpt lat="48.39813" lon="2.52596">
        <ele>124.147339</ele>
        <time>2012-05-07T12:31:23Z</time>
      </trkpt>
      <trkpt lat="48.39818" lon="2.52588">
        <ele>124.628052</ele>
        <time>2012-05-07T12:31:29Z</time>
      </trkpt>
      <trkpt lat="48.39822" lon="2.52579">
        <ele>124.147339</ele>
        <time>2012-05-07T12:31:36Z</time>
      </trkpt>
      <trkpt lat="48.39825" lon="2.52573">
        <ele>125.108765</ele>
        <time>2012-05-07T12:31:43Z</time>
      </trkpt>
      <trkpt lat="48.39829" lon="2.52566">
        <ele>125.108765</ele>
        <time>2012-05-07T12:31:50Z</time>
      </trkpt>
      <trkpt lat="48.39831" lon="2.5256">
        <ele>124.628052</ele>
        <time>2012-05-07T12:31:57Z</time>
      </trkpt>
      <trkpt lat="48.39831" lon="2.52553">
        <ele>125.589355</ele>
        <time>2012-05-07T12:32:04Z</time>
      </trkpt>
      <trkpt lat="48.39834" lon="2.52545">
        <ele>125.108765</ele>
        <time>2012-05-07T12:32:12Z</time>
      </trkpt>
      <trkpt lat="48.39834" lon="2.52538">
        <ele>124.147339</ele>
        <time>2012-05-07T12:32:20Z</time>
      </trkpt>
      <trkpt lat="48.39832" lon="2.52531">
        <ele>123.186157</ele>
        <time>2012-05-07T12:32:26Z</time>
      </trkpt>
      <trkpt lat="48.39833" lon="2.5252">
        <ele>123.186157</ele>
        <time>2012-05-07T12:32:33Z</time>
      </trkpt>
      <trkpt lat="48.39833" lon="2.5251">
        <ele>122.705444</ele>
        <time>2012-05-07T12:32:43Z</time>
      </trkpt>
      <trkpt lat="48.39834" lon="2.52505">
        <ele>122.705444</ele>
        <time>2012-05-07T12:32:50Z</time>
      </trkpt>
      <trkpt lat="48.39835" lon="2.52499">
        <ele>121.744141</ele>
        <time>2012-05-07T12:33:00Z</time>
      </trkpt>
      <trkpt lat="48.39835" lon="2.52493">
        <ele>121.744141</ele>
        <time>2012-05-07T12:33:04Z</time>
      </trkpt>
      <trkpt lat="48.39835" lon="2.52491">
        <ele>122.705444</ele>
        <time>2012-05-07T12:33:06Z</time>
      </trkpt>
      <trkpt lat="48.39837" lon="2.52483">
        <ele>123.666748</ele>
        <time>2012-05-07T12:33:13Z</time>
      </trkpt>
      <trkpt lat="48.39843" lon="2.52467">
        <ele>124.147339</ele>
        <time>2012-05-07T12:33:21Z</time>
      </trkpt>
      <trkpt lat="48.39845" lon="2.52454">
        <ele>124.147339</ele>
        <time>2012-05-07T12:33:29Z</time>
      </trkpt>
      <trkpt lat="48.39847" lon="2.52449">
        <ele>124.628052</ele>
        <time>2012-05-07T12:33:36Z</time>
      </trkpt>
      <trkpt lat="48.3985" lon="2.52441">
        <ele>124.628052</ele>
        <time>2012-05-07T12:33:44Z</time>
      </trkpt>
      <trkpt lat="48.39852" lon="2.52437">
        <ele>124.147339</ele>
        <time>2012-05-07T12:33:48Z</time>
      </trkpt>
      <trkpt lat="48.39854" lon="2.52434">
        <ele>124.628052</ele>
        <time>2012-05-07T12:33:51Z</time>
      </trkpt>
      <trkpt lat="48.39855" lon="2.52419">
        <ele>124.628052</ele>
        <time>2012-05-07T12:34:00Z</time>
      </trkpt>
      <trkpt lat="48.39859" lon="2.52403">
        <ele>125.108765</ele>
        <time>2012-05-07T12:34:08Z</time>
      </trkpt>
      <trkpt lat="48.39858" lon="2.52395">
        <ele>124.628052</ele>
        <time>2012-05-07T12:34:16Z</time>
      </trkpt>
      <trkpt lat="48.39857" lon="2.52384">
        <ele>124.628052</ele>
        <time>2012-05-07T12:34:23Z</time>
      </trkpt>
      <trkpt lat="48.39855" lon="2.52375">
        <ele>125.589355</ele>
        <time>2012-05-07T12:34:30Z</time>
      </trkpt>
      <trkpt lat="48.39853" lon="2.5237">
        <ele>124.628052</ele>
        <time>2012-05-07T12:34:36Z</time>
      </trkpt>
      <trkpt lat="48.39854" lon="2.52367">
        <ele>125.108765</ele>
        <time>2012-05-07T12:34:48Z</time>
      </trkpt>
      <trkpt lat="48.39855" lon="2.52364">
        <ele>124.628052</ele>
        <time>2012-05-07T12:34:51Z</time>
      </trkpt>
      <trkpt lat="48.3986" lon="2.52357">
        <ele>124.628052</ele>
        <time>2012-05-07T12:34:59Z</time>
      </trkpt>
      <trkpt lat="48.39864" lon="2.52357">
        <ele>124.628052</ele>
        <time>2012-05-07T12:35:07Z</time>
      </trkpt>
      <trkpt lat="48.39872" lon="2.52361">
        <ele>124.147339</ele>
        <time>2012-05-07T12:35:17Z</time>
      </trkpt>
      <trkpt lat="48.39885" lon="2.52359">
        <ele>125.108765</ele>
        <time>2012-05-07T12:35:27Z</time>
      </trkpt>
      <trkpt lat="48.39892" lon="2.52353">
        <ele>125.589355</ele>
        <time>2012-05-07T12:35:35Z</time>
      </trkpt>
      <trkpt lat="48.39896" lon="2.52347">
        <ele>125.589355</ele>
        <time>2012-05-07T12:35:42Z</time>
      </trkpt>
      <trkpt lat="48.39896" lon="2.52345">
        <ele>125.108765</ele>
        <time>2012-05-07T12:35:44Z</time>
      </trkpt>
      <trkpt lat="48.399" lon="2.5233">
        <ele>125.108765</ele>
        <time>2012-05-07T12:35:54Z</time>
      </trkpt>
      <trkpt lat="48.39901" lon="2.52329">
        <ele>125.108765</ele>
        <time>2012-05-07T12:35:55Z</time>
      </trkpt>
      <trkpt lat="48.3991" lon="2.5233">
        <ele>125.108765</ele>
        <time>2012-05-07T12:36:06Z</time>
      </trkpt>
      <trkpt lat="48.39917" lon="2.52331">
        <ele>124.147339</ele>
        <time>2012-05-07T12:36:15Z</time>
      </trkpt>
      <trkpt lat="48.39921" lon="2.52332">
        <ele>122.705444</ele>
        <time>2012-05-07T12:36:22Z</time>
      </trkpt>
      <trkpt lat="48.39927" lon="2.52333">
        <ele>121.26355</ele>
        <time>2012-05-07T12:36:29Z</time>
      </trkpt>
      <trkpt lat="48.39931" lon="2.52337">
        <ele>119.821411</ele>
        <time>2012-05-07T12:36:37Z</time>
      </trkpt>
      <trkpt lat="48.39936" lon="2.52337">
        <ele>118.379395</ele>
        <time>2012-05-07T12:36:44Z</time>
      </trkpt>
      <trkpt lat="48.39942" lon="2.52336">
        <ele>116.9375</ele>
        <time>2012-05-07T12:36:53Z</time>
      </trkpt>
      <trkpt lat="48.39948" lon="2.52334">
        <ele>115.495605</ele>
        <time>2012-05-07T12:37:01Z</time>
      </trkpt>
      <trkpt lat="48.39953" lon="2.52332">
        <ele>114.53418</ele>
        <time>2012-05-07T12:37:10Z</time>
      </trkpt>
      <trkpt lat="48.39957" lon="2.5233">
        <ele>113.092285</ele>
        <time>2012-05-07T12:37:17Z</time>
      </trkpt>
      <trkpt lat="48.3996" lon="2.5233">
        <ele>111.650269</ele>
        <time>2012-05-07T12:37:38Z</time>
      </trkpt>
      <trkpt lat="48.39962" lon="2.52332">
        <ele>113.092285</ele>
        <time>2012-05-07T12:37:47Z</time>
      </trkpt>
      <trkpt lat="48.39964" lon="2.52331">
        <ele>114.053589</ele>
        <time>2012-05-07T12:37:54Z</time>
      </trkpt>
      <trkpt lat="48.39969" lon="2.52323">
        <ele>115.976196</ele>
        <time>2012-05-07T12:38:06Z</time>
      </trkpt>
      <trkpt lat="48.39975" lon="2.52306">
        <ele>117.418213</ele>
        <time>2012-05-07T12:38:19Z</time>
      </trkpt>
      <trkpt lat="48.39977" lon="2.523">
        <ele>119.34082</ele>
        <time>2012-05-07T12:38:54Z</time>
      </trkpt>
      <trkpt lat="48.3998" lon="2.52294">
        <ele>118.860107</ele>
        <time>2012-05-07T12:39:03Z</time>
      </trkpt>
      <trkpt lat="48.39979" lon="2.52289">
        <ele>121.744141</ele>
        <time>2012-05-07T12:39:14Z</time>
      </trkpt>
      <trkpt lat="48.39986" lon="2.5228">
        <ele>120.302124</ele>
        <time>2012-05-07T12:39:30Z</time>
      </trkpt>
      <trkpt lat="48.39991" lon="2.52272">
        <ele>119.821411</ele>
        <time>2012-05-07T12:39:38Z</time>
      </trkpt>
      <trkpt lat="48.39993" lon="2.52255">
        <ele>121.26355</ele>
        <time>2012-05-07T12:39:46Z</time>
      </trkpt>
      <trkpt lat="48.39991" lon="2.52241">
        <ele>124.147339</ele>
        <time>2012-05-07T12:39:57Z</time>
      </trkpt>
      <trkpt lat="48.3999" lon="2.52234">
        <ele>124.628052</ele>
        <time>2012-05-07T12:40:07Z</time>
      </trkpt>
      <trkpt lat="48.39988" lon="2.52231">
        <ele>123.666748</ele>
        <time>2012-05-07T12:40:14Z</time>
      </trkpt>
      <trkpt lat="48.39987" lon="2.52227">
        <ele>123.666748</ele>
        <time>2012-05-07T12:40:25Z</time>
      </trkpt>
      <trkpt lat="48.39984" lon="2.52229">
        <ele>123.186157</ele>
        <time>2012-05-07T12:40:41Z</time>
      </trkpt>
      <trkpt lat="48.39981" lon="2.52226">
        <ele>124.628052</ele>
        <time>2012-05-07T12:42:06Z</time>
      </trkpt>
      <trkpt lat="48.39976" lon="2.52222">
        <ele>124.628052</ele>
        <time>2012-05-07T12:42:14Z</time>
      </trkpt>
      <trkpt lat="48.39973" lon="2.5222">
        <ele>125.589355</ele>
        <time>2012-05-07T12:42:20Z</time>
      </trkpt>
      <trkpt lat="48.39968" lon="2.52218">
        <ele>125.589355</ele>
        <time>2012-05-07T12:42:28Z</time>
      </trkpt>
      <trkpt lat="48.39965" lon="2.52217">
        <ele>125.589355</ele>
        <time>2012-05-07T12:42:37Z</time>
      </trkpt>
      <trkpt lat="48.3996" lon="2.52224">
        <ele>125.589355</ele>
        <time>2012-05-07T12:42:50Z</time>
      </trkpt>
      <trkpt lat="48.39954" lon="2.52228">
        <ele>125.108765</ele>
        <time>2012-05-07T12:42:58Z</time>
      </trkpt>
      <trkpt lat="48.3995" lon="2.52236">
        <ele>125.589355</ele>
        <time>2012-05-07T12:43:07Z</time>
      </trkpt>
      <trkpt lat="48.39945" lon="2.52244">
        <ele>125.589355</ele>
        <time>2012-05-07T12:43:14Z</time>
      </trkpt>
      <trkpt lat="48.3994" lon="2.52251">
        <ele>125.108765</ele>
        <time>2012-05-07T12:43:22Z</time>
      </trkpt>
      <trkpt lat="48.39938" lon="2.52253">
        <ele>124.628052</ele>
        <time>2012-05-07T12:43:24Z</time>
      </trkpt>
      <trkpt lat="48.39933" lon="2.52256">
        <ele>124.147339</ele>
        <time>2012-05-07T12:43:31Z</time>
      </trkpt>
      <trkpt lat="48.39931" lon="2.52258">
        <ele>124.147339</ele>
        <time>2012-05-07T12:43:36Z</time>
      </trkpt>
      <trkpt lat="48.39925" lon="2.52259">
        <ele>124.147339</ele>
        <time>2012-05-07T12:43:43Z</time>
      </trkpt>
      <trkpt lat="48.39917" lon="2.52259">
        <ele>124.628052</ele>
        <time>2012-05-07T12:43:51Z</time>
      </trkpt>
      <trkpt lat="48.39907" lon="2.52261">
        <ele>125.108765</ele>
        <time>2012-05-07T12:43:59Z</time>
      </trkpt>
      <trkpt lat="48.39897" lon="2.52264">
        <ele>125.108765</ele>
        <time>2012-05-07T12:44:08Z</time>
      </trkpt>
      <trkpt lat="48.3989" lon="2.52259">
        <ele>126.069946</ele>
        <time>2012-05-07T12:44:15Z</time>
      </trkpt>
      <trkpt lat="48.39886" lon="2.5225">
        <ele>126.069946</ele>
        <time>2012-05-07T12:44:24Z</time>
      </trkpt>
      <trkpt lat="48.3988" lon="2.52248">
        <ele>126.069946</ele>
        <time>2012-05-07T12:44:30Z</time>
      </trkpt>
      <trkpt lat="48.39875" lon="2.52245">
        <ele>125.589355</ele>
        <time>2012-05-07T12:44:37Z</time>
      </trkpt>
      <trkpt lat="48.39874" lon="2.52245">
        <ele>124.147339</ele>
        <time>2012-05-07T12:44:45Z</time>
      </trkpt>
      <trkpt lat="48.39872" lon="2.52243">
        <ele>123.186157</ele>
        <time>2012-05-07T12:44:52Z</time>
      </trkpt>
      <trkpt lat="48.39872" lon="2.52236">
        <ele>120.782837</ele>
        <time>2012-05-07T12:45:04Z</time>
      </trkpt>
      <trkpt lat="48.39869" lon="2.5223">
        <ele>119.34082</ele>
        <time>2012-05-07T12:45:13Z</time>
      </trkpt>
      <trkpt lat="48.39865" lon="2.52222">
        <ele>118.379395</ele>
        <time>2012-05-07T12:45:27Z</time>
      </trkpt>
      <trkpt lat="48.3986" lon="2.52222">
        <ele>116.456787</ele>
        <time>2012-05-07T12:45:39Z</time>
      </trkpt>
      <trkpt lat="48.3986" lon="2.52215">
        <ele>114.053589</ele>
        <time>2012-05-07T12:45:46Z</time>
      </trkpt>
      <trkpt lat="48.39862" lon="2.52211">
        <ele>113.092285</ele>
        <time>2012-05-07T12:45:53Z</time>
      </trkpt>
      <trkpt lat="48.39865" lon="2.52206">
        <ele>112.611572</ele>
        <time>2012-05-07T12:46:02Z</time>
      </trkpt>
      <trkpt lat="48.39868" lon="2.52201">
        <ele>111.650269</ele>
        <time>2012-05-07T12:46:10Z</time>
      </trkpt>
      <trkpt lat="48.39872" lon="2.52193">
        <ele>110.688843</ele>
        <time>2012-05-07T12:46:17Z</time>
      </trkpt>
      <trkpt lat="48.39874" lon="2.52181">
        <ele>111.650269</ele>
        <time>2012-05-07T12:46:25Z</time>
      </trkpt>
      <trkpt lat="48.39873" lon="2.52173">
        <ele>111.650269</ele>
        <time>2012-05-07T12:46:32Z</time>
      </trkpt>
      <trkpt lat="48.39874" lon="2.52167">
        <ele>109.727661</ele>
        <time>2012-05-07T12:46:40Z</time>
      </trkpt>
      <trkpt lat="48.39879" lon="2.52155">
        <ele>107.805054</ele>
        <time>2012-05-07T12:46:53Z</time>
      </trkpt>
      <trkpt lat="48.3988" lon="2.52147">
        <ele>106.843628</ele>
        <time>2012-05-07T12:47:04Z</time>
      </trkpt>
      <trkpt lat="48.39878" lon="2.52145">
        <ele>104.921021</ele>
        <time>2012-05-07T12:47:12Z</time>
      </trkpt>
      <trkpt lat="48.39876" lon="2.5214">
        <ele>102.5177</ele>
        <time>2012-05-07T12:47:21Z</time>
      </trkpt>
      <trkpt lat="48.39879" lon="2.52138">
        <ele>101.556396</ele>
        <time>2012-05-07T12:47:31Z</time>
      </trkpt>
      <trkpt lat="48.39883" lon="2.52135">
        <ele>102.5177</ele>
        <time>2012-05-07T12:47:39Z</time>
      </trkpt>
      <trkpt lat="48.39882" lon="2.52139">
        <ele>101.556396</ele>
        <time>2012-05-07T12:47:50Z</time>
      </trkpt>
      <trkpt lat="48.39884" lon="2.52137">
        <ele>100.595093</ele>
        <time>2012-05-07T12:47:59Z</time>
      </trkpt>
      <trkpt lat="48.39888" lon="2.52128">
        <ele>99.153076</ele>
        <time>2012-05-07T12:48:09Z</time>
      </trkpt>
      <trkpt lat="48.39889" lon="2.52119">
        <ele>97.711182</ele>
        <time>2012-05-07T12:48:20Z</time>
      </trkpt>
      <trkpt lat="48.39892" lon="2.5211">
        <ele>95.788452</ele>
        <time>2012-05-07T12:48:31Z</time>
      </trkpt>
      <trkpt lat="48.39896" lon="2.52105">
        <ele>94.346558</ele>
        <time>2012-05-07T12:48:39Z</time>
      </trkpt>
      <trkpt lat="48.399" lon="2.52096">
        <ele>92.904541</ele>
        <time>2012-05-07T12:48:47Z</time>
      </trkpt>
      <trkpt lat="48.39898" lon="2.52089">
        <ele>92.42395</ele>
        <time>2012-05-07T12:48:55Z</time>
      </trkpt>
      <trkpt lat="48.39896" lon="2.52079">
        <ele>93.385132</ele>
        <time>2012-05-07T12:49:01Z</time>
      </trkpt>
      <trkpt lat="48.39897" lon="2.5206">
        <ele>94.827148</ele>
        <time>2012-05-07T12:49:12Z</time>
      </trkpt>
      <trkpt lat="48.39894" lon="2.52058">
        <ele>95.788452</ele>
        <time>2012-05-07T12:49:20Z</time>
      </trkpt>
      <trkpt lat="48.39889" lon="2.52054">
        <ele>96.749878</ele>
        <time>2012-05-07T12:49:29Z</time>
      </trkpt>
      <trkpt lat="48.39885" lon="2.52052">
        <ele>97.230469</ele>
        <time>2012-05-07T12:49:38Z</time>
      </trkpt>
      <trkpt lat="48.39883" lon="2.5205">
        <ele>98.191895</ele>
        <time>2012-05-07T12:49:46Z</time>
      </trkpt>
      <trkpt lat="48.39881" lon="2.52045">
        <ele>99.153076</ele>
        <time>2012-05-07T12:49:56Z</time>
      </trkpt>
      <trkpt lat="48.39878" lon="2.52041">
        <ele>100.114502</ele>
        <time>2012-05-07T12:50:15Z</time>
      </trkpt>
      <trkpt lat="48.39875" lon="2.52035">
        <ele>100.595093</ele>
        <time>2012-05-07T12:50:23Z</time>
      </trkpt>
      <trkpt lat="48.39872" lon="2.5203">
        <ele>102.037109</ele>
        <time>2012-05-07T12:50:38Z</time>
      </trkpt>
      <trkpt lat="48.3987" lon="2.52032">
        <ele>101.075684</ele>
        <time>2012-05-07T12:50:59Z</time>
      </trkpt>
      <trkpt lat="48.39869" lon="2.52027">
        <ele>100.595093</ele>
        <time>2012-05-07T12:51:23Z</time>
      </trkpt>
      <trkpt lat="48.39871" lon="2.52023">
        <ele>100.595093</ele>
        <time>2012-05-07T12:51:30Z</time>
      </trkpt>
      <trkpt lat="48.39872" lon="2.52017">
        <ele>99.633789</ele>
        <time>2012-05-07T12:51:37Z</time>
      </trkpt>
      <trkpt lat="48.39873" lon="2.5201">
        <ele>97.711182</ele>
        <time>2012-05-07T12:51:50Z</time>
      </trkpt>
      <trkpt lat="48.39876" lon="2.52006">
        <ele>96.749878</ele>
        <time>2012-05-07T12:52:00Z</time>
      </trkpt>
      <trkpt lat="48.39877" lon="2.51996">
        <ele>95.788452</ele>
        <time>2012-05-07T12:52:08Z</time>
      </trkpt>
      <trkpt lat="48.39878" lon="2.51993">
        <ele>95.307739</ele>
        <time>2012-05-07T12:52:17Z</time>
      </trkpt>
      <trkpt lat="48.39877" lon="2.51988">
        <ele>94.827148</ele>
        <time>2012-05-07T12:52:23Z</time>
      </trkpt>
      <trkpt lat="48.39876" lon="2.51981">
        <ele>94.346558</ele>
        <time>2012-05-07T12:52:29Z</time>
      </trkpt>
      <trkpt lat="48.39878" lon="2.51978">
        <ele>93.385132</ele>
        <time>2012-05-07T12:52:34Z</time>
      </trkpt>
      <trkpt lat="48.39877" lon="2.51975">
        <ele>92.42395</ele>
        <time>2012-05-07T12:52:39Z</time>
      </trkpt>
      <trkpt lat="48.3988" lon="2.51966">
        <ele>91.462524</ele>
        <time>2012-05-07T12:52:48Z</time>
      </trkpt>
      <trkpt lat="48.39879" lon="2.51954">
        <ele>90.02063</ele>
        <time>2012-05-07T12:52:57Z</time>
      </trkpt>
      <trkpt lat="48.39877" lon="2.51948">
        <ele>89.059326</ele>
        <time>2012-05-07T12:53:04Z</time>
      </trkpt>
      <trkpt lat="48.39875" lon="2.5194">
        <ele>87.617188</ele>
        <time>2012-05-07T12:53:12Z</time>
      </trkpt>
      <trkpt lat="48.39871" lon="2.51931">
        <ele>86.656006</ele>
        <time>2012-05-07T12:53:19Z</time>
      </trkpt>
      <trkpt lat="48.39869" lon="2.51927">
        <ele>85.69458</ele>
        <time>2012-05-07T12:53:25Z</time>
      </trkpt>
      <trkpt lat="48.39869" lon="2.51921">
        <ele>84.733398</ele>
        <time>2012-05-07T12:53:31Z</time>
      </trkpt>
      <trkpt lat="48.39869" lon="2.51909">
        <ele>83.291382</ele>
        <time>2012-05-07T12:53:39Z</time>
      </trkpt>
      <trkpt lat="48.3987" lon="2.51903">
        <ele>82.810791</ele>
        <time>2012-05-07T12:53:46Z</time>
      </trkpt>
      <trkpt lat="48.39868" lon="2.51891">
        <ele>81.849365</ele>
        <time>2012-05-07T12:53:56Z</time>
      </trkpt>
      <trkpt lat="48.39865" lon="2.51884">
        <ele>81.849365</ele>
        <time>2012-05-07T12:54:04Z</time>
      </trkpt>
      <trkpt lat="48.39864" lon="2.51875">
        <ele>80.888184</ele>
        <time>2012-05-07T12:54:11Z</time>
      </trkpt>
      <trkpt lat="48.39862" lon="2.51865">
        <ele>80.407471</ele>
        <time>2012-05-07T12:54:21Z</time>
      </trkpt>
      <trkpt lat="48.39862" lon="2.51858">
        <ele>80.407471</ele>
        <time>2012-05-07T12:54:33Z</time>
      </trkpt>
      <trkpt lat="48.39862" lon="2.51851">
        <ele>80.407471</ele>
        <time>2012-05-07T12:54:46Z</time>
      </trkpt>
      <trkpt lat="48.39858" lon="2.51842">
        <ele>81.368774</ele>
        <time>2012-05-07T12:54:54Z</time>
      </trkpt>
      <trkpt lat="48.39855" lon="2.51838">
        <ele>82.330078</ele>
        <time>2012-05-07T12:55:01Z</time>
      </trkpt>
      <trkpt lat="48.3985" lon="2.51832">
        <ele>81.849365</ele>
        <time>2012-05-07T12:55:09Z</time>
      </trkpt>
      <trkpt lat="48.39847" lon="2.51822">
        <ele>83.771973</ele>
        <time>2012-05-07T12:55:18Z</time>
      </trkpt>
      <trkpt lat="48.39846" lon="2.51813">
        <ele>84.733398</ele>
        <time>2012-05-07T12:55:28Z</time>
      </trkpt>
      <trkpt lat="48.39846" lon="2.51805">
        <ele>85.213989</ele>
        <time>2012-05-07T12:55:36Z</time>
      </trkpt>
      <trkpt lat="48.39848" lon="2.51787">
        <ele>86.656006</ele>
        <time>2012-05-07T12:55:46Z</time>
      </trkpt>
      <trkpt lat="48.39844" lon="2.51773">
        <ele>88.098022</ele>
        <time>2012-05-07T12:55:54Z</time>
      </trkpt>
      <trkpt lat="48.39842" lon="2.51758">
        <ele>88.578735</ele>
        <time>2012-05-07T12:56:03Z</time>
      </trkpt>
      <trkpt lat="48.39838" lon="2.51753">
        <ele>89.539917</ele>
        <time>2012-05-07T12:56:14Z</time>
      </trkpt>
      <trkpt lat="48.39835" lon="2.51751">
        <ele>92.42395</ele>
        <time>2012-05-07T12:56:38Z</time>
      </trkpt>
      <trkpt lat="48.3983" lon="2.51752">
        <ele>91.943237</ele>
        <time>2012-05-07T12:56:45Z</time>
      </trkpt>
      <trkpt lat="48.39833" lon="2.51757">
        <ele>92.42395</ele>
        <time>2012-05-07T12:56:54Z</time>
      </trkpt>
      <trkpt lat="48.39827" lon="2.51764">
        <ele>93.385132</ele>
        <time>2012-05-07T12:57:02Z</time>
      </trkpt>
      <trkpt lat="48.39823" lon="2.51769">
        <ele>95.307739</ele>
        <time>2012-05-07T12:57:10Z</time>
      </trkpt>
      <trkpt lat="48.39819" lon="2.51773">
        <ele>95.788452</ele>
        <time>2012-05-07T12:57:17Z</time>
      </trkpt>
      <trkpt lat="48.39816" lon="2.51775">
        <ele>97.711182</ele>
        <time>2012-05-07T12:57:25Z</time>
      </trkpt>
      <trkpt lat="48.39807" lon="2.51778">
        <ele>99.153076</ele>
        <time>2012-05-07T12:57:34Z</time>
      </trkpt>
      <trkpt lat="48.39803" lon="2.51783">
        <ele>99.633789</ele>
        <time>2012-05-07T12:57:46Z</time>
      </trkpt>
      <trkpt lat="48.39799" lon="2.51792">
        <ele>99.633789</ele>
        <time>2012-05-07T12:57:55Z</time>
      </trkpt>
      <trkpt lat="48.39799" lon="2.51796">
        <ele>99.633789</ele>
        <time>2012-05-07T12:58:04Z</time>
      </trkpt>
      <trkpt lat="48.39796" lon="2.518">
        <ele>100.114502</ele>
        <time>2012-05-07T12:58:12Z</time>
      </trkpt>
      <trkpt lat="48.39792" lon="2.51803">
        <ele>100.114502</ele>
        <time>2012-05-07T12:58:18Z</time>
      </trkpt>
      <trkpt lat="48.39786" lon="2.51807">
        <ele>100.595093</ele>
        <time>2012-05-07T12:58:26Z</time>
      </trkpt>
      <trkpt lat="48.39782" lon="2.51809">
        <ele>100.114502</ele>
        <time>2012-05-07T12:58:33Z</time>
      </trkpt>
      <trkpt lat="48.3978" lon="2.5181">
        <ele>99.633789</ele>
        <time>2012-05-07T12:58:40Z</time>
      </trkpt>
      <trkpt lat="48.39778" lon="2.5181">
        <ele>99.153076</ele>
        <time>2012-05-07T12:58:46Z</time>
      </trkpt>
      <trkpt lat="48.39774" lon="2.51809">
        <ele>98.672485</ele>
        <time>2012-05-07T12:58:52Z</time>
      </trkpt>
      <trkpt lat="48.3977" lon="2.51814">
        <ele>99.633789</ele>
        <time>2012-05-07T12:59:01Z</time>
      </trkpt>
      <trkpt lat="48.39764" lon="2.5182">
        <ele>100.114502</ele>
        <time>2012-05-07T12:59:09Z</time>
      </trkpt>
      <trkpt lat="48.39761" lon="2.51821">
        <ele>101.075684</ele>
        <time>2012-05-07T12:59:17Z</time>
      </trkpt>
      <trkpt lat="48.39757" lon="2.51816">
        <ele>102.998291</ele>
        <time>2012-05-07T12:59:27Z</time>
      </trkpt>
      <trkpt lat="48.39757" lon="2.51814">
        <ele>104.921021</ele>
        <time>2012-05-07T12:59:34Z</time>
      </trkpt>
      <trkpt lat="48.39753" lon="2.51813">
        <ele>106.843628</ele>
        <time>2012-05-07T12:59:43Z</time>
      </trkpt>
      <trkpt lat="48.39749" lon="2.5181">
        <ele>107.805054</ele>
        <time>2012-05-07T12:59:51Z</time>
      </trkpt>
      <trkpt lat="48.39744" lon="2.51808">
        <ele>108.766235</ele>
        <time>2012-05-07T12:59:57Z</time>
      </trkpt>
      <trkpt lat="48.39738" lon="2.51806">
        <ele>109.727661</ele>
        <time>2012-05-07T13:00:05Z</time>
      </trkpt>
      <trkpt lat="48.39733" lon="2.51804">
        <ele>110.688843</ele>
        <time>2012-05-07T13:00:14Z</time>
      </trkpt>
      <trkpt lat="48.39734" lon="2.518">
        <ele>110.688843</ele>
        <time>2012-05-07T13:00:23Z</time>
      </trkpt>
      <trkpt lat="48.39733" lon="2.51795">
        <ele>109.727661</ele>
        <time>2012-05-07T13:00:29Z</time>
      </trkpt>
      <trkpt lat="48.39729" lon="2.51783">
        <ele>110.208252</ele>
        <time>2012-05-07T13:00:38Z</time>
      </trkpt>
      <trkpt lat="48.39725" lon="2.51778">
        <ele>111.169556</ele>
        <time>2012-05-07T13:00:47Z</time>
      </trkpt>
      <trkpt lat="48.39723" lon="2.51771">
        <ele>111.169556</ele>
        <time>2012-05-07T13:00:53Z</time>
      </trkpt>
      <trkpt lat="48.39718" lon="2.51767">
        <ele>111.169556</ele>
        <time>2012-05-07T13:01:01Z</time>
      </trkpt>
      <trkpt lat="48.39716" lon="2.51764">
        <ele>111.169556</ele>
        <time>2012-05-07T13:01:06Z</time>
      </trkpt>
      <trkpt lat="48.39713" lon="2.51753">
        <ele>110.688843</ele>
        <time>2012-05-07T13:01:14Z</time>
      </trkpt>
      <trkpt lat="48.39712" lon="2.51745">
        <ele>110.688843</ele>
        <time>2012-05-07T13:01:22Z</time>
      </trkpt>
      <trkpt lat="48.39709" lon="2.51739">
        <ele>109.727661</ele>
        <time>2012-05-07T13:01:31Z</time>
      </trkpt>
      <trkpt lat="48.39708" lon="2.51728">
        <ele>108.766235</ele>
        <time>2012-05-07T13:01:45Z</time>
      </trkpt>
      <trkpt lat="48.39704" lon="2.51721">
        <ele>108.766235</ele>
        <time>2012-05-07T13:01:53Z</time>
      </trkpt>
      <trkpt lat="48.39702" lon="2.51716">
        <ele>108.285645</ele>
        <time>2012-05-07T13:02:01Z</time>
      </trkpt>
      <trkpt lat="48.397" lon="2.51708">
        <ele>108.766235</ele>
        <time>2012-05-07T13:02:10Z</time>
      </trkpt>
      <trkpt lat="48.39694" lon="2.51701">
        <ele>108.766235</ele>
        <time>2012-05-07T13:02:18Z</time>
      </trkpt>
      <trkpt lat="48.39691" lon="2.51697">
        <ele>109.727661</ele>
        <time>2012-05-07T13:02:27Z</time>
      </trkpt>
      <trkpt lat="48.3969" lon="2.51694">
        <ele>110.208252</ele>
        <time>2012-05-07T13:02:34Z</time>
      </trkpt>
      <trkpt lat="48.39687" lon="2.51691">
        <ele>112.130981</ele>
        <time>2012-05-07T13:02:43Z</time>
      </trkpt>
      <trkpt lat="48.39683" lon="2.5169">
        <ele>113.572998</ele>
        <time>2012-05-07T13:02:51Z</time>
      </trkpt>
      <trkpt lat="48.39671" lon="2.51687">
        <ele>116.456787</ele>
        <time>2012-05-07T13:03:03Z</time>
      </trkpt>
      <trkpt lat="48.39665" lon="2.51681">
        <ele>116.9375</ele>
        <time>2012-05-07T13:03:14Z</time>
      </trkpt>
      <trkpt lat="48.39661" lon="2.51677">
        <ele>117.418213</ele>
        <time>2012-05-07T13:03:22Z</time>
      </trkpt>
      <trkpt lat="48.39655" lon="2.51676">
        <ele>116.9375</ele>
        <time>2012-05-07T13:03:30Z</time>
      </trkpt>
      <trkpt lat="48.39652" lon="2.51679">
        <ele>116.9375</ele>
        <time>2012-05-07T13:03:39Z</time>
      </trkpt>
      <trkpt lat="48.39648" lon="2.51685">
        <ele>116.456787</ele>
        <time>2012-05-07T13:04:00Z</time>
      </trkpt>
      <trkpt lat="48.39646" lon="2.51682">
        <ele>116.456787</ele>
        <time>2012-05-07T13:04:06Z</time>
      </trkpt>
      <trkpt lat="48.39641" lon="2.51682">
        <ele>116.9375</ele>
        <time>2012-05-07T13:04:14Z</time>
      </trkpt>
      <trkpt lat="48.39637" lon="2.51682">
        <ele>117.898804</ele>
        <time>2012-05-07T13:04:23Z</time>
      </trkpt>
      <trkpt lat="48.39628" lon="2.51683">
        <ele>117.898804</ele>
        <time>2012-05-07T13:04:33Z</time>
      </trkpt>
      <trkpt lat="48.39621" lon="2.51683">
        <ele>117.898804</ele>
        <time>2012-05-07T13:04:41Z</time>
      </trkpt>
      <trkpt lat="48.39616" lon="2.51683">
        <ele>116.9375</ele>
        <time>2012-05-07T13:04:48Z</time>
      </trkpt>
      <trkpt lat="48.39614" lon="2.5169">
        <ele>117.418213</ele>
        <time>2012-05-07T13:04:53Z</time>
      </trkpt>
      <trkpt lat="48.3961" lon="2.51699">
        <ele>118.379395</ele>
        <time>2012-05-07T13:05:02Z</time>
      </trkpt>
      <trkpt lat="48.39606" lon="2.51709">
        <ele>119.34082</ele>
        <time>2012-05-07T13:05:10Z</time>
      </trkpt>
      <trkpt lat="48.39604" lon="2.51725">
        <ele>119.821411</ele>
        <time>2012-05-07T13:05:18Z</time>
      </trkpt>
      <trkpt lat="48.39605" lon="2.51736">
        <ele>119.821411</ele>
        <time>2012-05-07T13:05:26Z</time>
      </trkpt>
      <trkpt lat="48.39602" lon="2.5175">
        <ele>120.302124</ele>
        <time>2012-05-07T13:05:35Z</time>
      </trkpt>
      <trkpt lat="48.39604" lon="2.51759">
        <ele>120.302124</ele>
        <time>2012-05-07T13:05:42Z</time>
      </trkpt>
      <trkpt lat="48.39603" lon="2.51766">
        <ele>120.302124</ele>
        <time>2012-05-07T13:05:49Z</time>
      </trkpt>
      <trkpt lat="48.39607" lon="2.5177">
        <ele>120.302124</ele>
        <time>2012-05-07T13:05:59Z</time>
      </trkpt>
      <trkpt lat="48.39604" lon="2.51773">
        <ele>120.782837</ele>
        <time>2012-05-07T13:06:09Z</time>
      </trkpt>
      <trkpt lat="48.39602" lon="2.51777">
        <ele>120.782837</ele>
        <time>2012-05-07T13:06:18Z</time>
      </trkpt>
      <trkpt lat="48.39598" lon="2.51779">
        <ele>119.821411</ele>
        <time>2012-05-07T13:06:27Z</time>
      </trkpt>
      <trkpt lat="48.39596" lon="2.5178">
        <ele>120.302124</ele>
        <time>2012-05-07T13:07:09Z</time>
      </trkpt>
      <trkpt lat="48.39597" lon="2.51786">
        <ele>119.821411</ele>
        <time>2012-05-07T13:07:21Z</time>
      </trkpt>
      <trkpt lat="48.39599" lon="2.51794">
        <ele>117.898804</ele>
        <time>2012-05-07T13:07:36Z</time>
      </trkpt>
      <trkpt lat="48.39593" lon="2.51791">
        <ele>116.9375</ele>
        <time>2012-05-07T13:07:45Z</time>
      </trkpt>
      <trkpt lat="48.39596" lon="2.51796">
        <ele>115.976196</ele>
        <time>2012-05-07T13:08:10Z</time>
      </trkpt>
      <trkpt lat="48.39594" lon="2.51798">
        <ele>115.976196</ele>
        <time>2012-05-07T13:08:19Z</time>
      </trkpt>
      <trkpt lat="48.39592" lon="2.51798">
        <ele>114.53418</ele>
        <time>2012-05-07T13:08:27Z</time>
      </trkpt>
      <trkpt lat="48.39589" lon="2.51797">
        <ele>114.053589</ele>
        <time>2012-05-07T13:08:38Z</time>
      </trkpt>
      <trkpt lat="48.39588" lon="2.51796">
        <ele>113.092285</ele>
        <time>2012-05-07T13:08:47Z</time>
      </trkpt>
      <trkpt lat="48.39585" lon="2.51794">
        <ele>112.611572</ele>
        <time>2012-05-07T13:08:56Z</time>
      </trkpt>
      <trkpt lat="48.39581" lon="2.5179">
        <ele>111.650269</ele>
        <time>2012-05-07T13:09:09Z</time>
      </trkpt>
      <trkpt lat="48.3958" lon="2.51792">
        <ele>110.208252</ele>
        <time>2012-05-07T13:09:29Z</time>
      </trkpt>
      <trkpt lat="48.39577" lon="2.51796">
        <ele>111.169556</ele>
        <time>2012-05-07T13:09:36Z</time>
      </trkpt>
      <trkpt lat="48.39574" lon="2.51799">
        <ele>110.208252</ele>
        <time>2012-05-07T13:09:44Z</time>
      </trkpt>
      <trkpt lat="48.39572" lon="2.51801">
        <ele>109.727661</ele>
        <time>2012-05-07T13:09:52Z</time>
      </trkpt>
      <trkpt lat="48.39566" lon="2.51799">
        <ele>107.324341</ele>
        <time>2012-05-07T13:10:14Z</time>
      </trkpt>
      <trkpt lat="48.39562" lon="2.51802">
        <ele>106.843628</ele>
        <time>2012-05-07T13:10:21Z</time>
      </trkpt>
      <trkpt lat="48.39559" lon="2.51812">
        <ele>108.285645</ele>
        <time>2012-05-07T13:10:31Z</time>
      </trkpt>
      <trkpt lat="48.39556" lon="2.51818">
        <ele>109.246948</ele>
        <time>2012-05-07T13:10:38Z</time>
      </trkpt>
      <trkpt lat="48.39555" lon="2.51824">
        <ele>110.208252</ele>
        <time>2012-05-07T13:10:46Z</time>
      </trkpt>
      <trkpt lat="48.39555" lon="2.51832">
        <ele>110.688843</ele>
        <time>2012-05-07T13:10:53Z</time>
      </trkpt>
      <trkpt lat="48.39552" lon="2.51838">
        <ele>111.169556</ele>
        <time>2012-05-07T13:11:01Z</time>
      </trkpt>
      <trkpt lat="48.39546" lon="2.51846">
        <ele>112.130981</ele>
        <time>2012-05-07T13:11:10Z</time>
      </trkpt>
      <trkpt lat="48.39541" lon="2.51852">
        <ele>112.130981</ele>
        <time>2012-05-07T13:11:18Z</time>
      </trkpt>
      <trkpt lat="48.39543" lon="2.51865">
        <ele>113.092285</ele>
        <time>2012-05-07T13:11:26Z</time>
      </trkpt>
      <trkpt lat="48.39541" lon="2.51878">
        <ele>113.572998</ele>
        <time>2012-05-07T13:11:36Z</time>
      </trkpt>
      <trkpt lat="48.39541" lon="2.51887">
        <ele>113.572998</ele>
        <time>2012-05-07T13:11:43Z</time>
      </trkpt>
      <trkpt lat="48.3954" lon="2.51891">
        <ele>112.611572</ele>
        <time>2012-05-07T13:11:47Z</time>
      </trkpt>
      <trkpt lat="48.3954" lon="2.51912">
        <ele>112.611572</ele>
        <time>2012-05-07T13:11:57Z</time>
      </trkpt>
      <trkpt lat="48.39539" lon="2.5192">
        <ele>113.572998</ele>
        <time>2012-05-07T13:12:06Z</time>
      </trkpt>
      <trkpt lat="48.39539" lon="2.51929">
        <ele>115.495605</ele>
        <time>2012-05-07T13:12:15Z</time>
      </trkpt>
      <trkpt lat="48.39538" lon="2.51941">
        <ele>117.418213</ele>
        <time>2012-05-07T13:12:25Z</time>
      </trkpt>
      <trkpt lat="48.39539" lon="2.51944">
        <ele>119.34082</ele>
        <time>2012-05-07T13:12:31Z</time>
      </trkpt>
      <trkpt lat="48.39535" lon="2.51946">
        <ele>119.821411</ele>
        <time>2012-05-07T13:12:39Z</time>
      </trkpt>
      <trkpt lat="48.39532" lon="2.51943">
        <ele>119.34082</ele>
        <time>2012-05-07T13:12:48Z</time>
      </trkpt>
      <trkpt lat="48.39528" lon="2.51943">
        <ele>119.34082</ele>
        <time>2012-05-07T13:12:56Z</time>
      </trkpt>
      <trkpt lat="48.39523" lon="2.51944">
        <ele>118.379395</ele>
        <time>2012-05-07T13:13:04Z</time>
      </trkpt>
      <trkpt lat="48.3952" lon="2.51946">
        <ele>116.9375</ele>
        <time>2012-05-07T13:13:10Z</time>
      </trkpt>
      <trkpt lat="48.39513" lon="2.51947">
        <ele>115.976196</ele>
        <time>2012-05-07T13:13:19Z</time>
      </trkpt>
      <trkpt lat="48.39512" lon="2.51951">
        <ele>115.976196</ele>
        <time>2012-05-07T13:13:23Z</time>
      </trkpt>
      <trkpt lat="48.3951" lon="2.51961">
        <ele>115.495605</ele>
        <time>2012-05-07T13:13:32Z</time>
      </trkpt>
      <trkpt lat="48.39509" lon="2.51964">
        <ele>113.092285</ele>
        <time>2012-05-07T13:13:40Z</time>
      </trkpt>
      <trkpt lat="48.39506" lon="2.51961">
        <ele>112.130981</ele>
        <time>2012-05-07T13:13:48Z</time>
      </trkpt>
      <trkpt lat="48.39502" lon="2.51963">
        <ele>111.169556</ele>
        <time>2012-05-07T13:13:56Z</time>
      </trkpt>
      <trkpt lat="48.39494" lon="2.51967">
        <ele>110.208252</ele>
        <time>2012-05-07T13:14:07Z</time>
      </trkpt>
      <trkpt lat="48.39495" lon="2.51975">
        <ele>110.688843</ele>
        <time>2012-05-07T13:14:15Z</time>
      </trkpt>
      <trkpt lat="48.39498" lon="2.5198">
        <ele>113.572998</ele>
        <time>2012-05-07T13:14:36Z</time>
      </trkpt>
      <trkpt lat="48.39498" lon="2.51988">
        <ele>115.014893</ele>
        <time>2012-05-07T13:14:45Z</time>
      </trkpt>
      <trkpt lat="48.39497" lon="2.51997">
        <ele>115.495605</ele>
        <time>2012-05-07T13:14:52Z</time>
      </trkpt>
      <trkpt lat="48.39493" lon="2.52009">
        <ele>117.418213</ele>
        <time>2012-05-07T13:15:01Z</time>
      </trkpt>
      <trkpt lat="48.39494" lon="2.5202">
        <ele>118.379395</ele>
        <time>2012-05-07T13:15:11Z</time>
      </trkpt>
      <trkpt lat="48.39497" lon="2.52033">
        <ele>118.379395</ele>
        <time>2012-05-07T13:15:19Z</time>
      </trkpt>
      <trkpt lat="48.39499" lon="2.52045">
        <ele>118.379395</ele>
        <time>2012-05-07T13:15:27Z</time>
      </trkpt>
      <trkpt lat="48.39498" lon="2.5205">
        <ele>118.379395</ele>
        <time>2012-05-07T13:15:34Z</time>
      </trkpt>
      <trkpt lat="48.39494" lon="2.52055">
        <ele>118.860107</ele>
        <time>2012-05-07T13:15:42Z</time>
      </trkpt>
      <trkpt lat="48.39495" lon="2.52064">
        <ele>119.34082</ele>
        <time>2012-05-07T13:15:49Z</time>
      </trkpt>
      <trkpt lat="48.39491" lon="2.52075">
        <ele>118.860107</ele>
        <time>2012-05-07T13:15:56Z</time>
      </trkpt>
      <trkpt lat="48.39496" lon="2.52084">
        <ele>119.34082</ele>
        <time>2012-05-07T13:16:06Z</time>
      </trkpt>
      <trkpt lat="48.39499" lon="2.52089">
        <ele>119.34082</ele>
        <time>2012-05-07T13:16:16Z</time>
      </trkpt>
      <trkpt lat="48.39498" lon="2.52094">
        <ele>119.821411</ele>
        <time>2012-05-07T13:16:25Z</time>
      </trkpt>
      <trkpt lat="48.39495" lon="2.52099">
        <ele>118.379395</ele>
        <time>2012-05-07T13:16:41Z</time>
      </trkpt>
      <trkpt lat="48.39493" lon="2.52105">
        <ele>117.898804</ele>
        <time>2012-05-07T13:16:49Z</time>
      </trkpt>
      <trkpt lat="48.39491" lon="2.52114">
        <ele>116.9375</ele>
        <time>2012-05-07T13:16:59Z</time>
      </trkpt>
      <trkpt lat="48.39486" lon="2.52119">
        <ele>116.456787</ele>
        <time>2012-05-07T13:17:07Z</time>
      </trkpt>
      <trkpt lat="48.39481" lon="2.52123">
        <ele>117.418213</ele>
        <time>2012-05-07T13:17:15Z</time>
      </trkpt>
      <trkpt lat="48.39475" lon="2.5214">
        <ele>117.418213</ele>
        <time>2012-05-07T13:17:24Z</time>
      </trkpt>
      <trkpt lat="48.39469" lon="2.52157">
        <ele>117.898804</ele>
        <time>2012-05-07T13:17:32Z</time>
      </trkpt>
      <trkpt lat="48.39465" lon="2.52166">
        <ele>118.379395</ele>
        <time>2012-05-07T13:17:38Z</time>
      </trkpt>
      <trkpt lat="48.39461" lon="2.52173">
        <ele>118.860107</ele>
        <time>2012-05-07T13:17:42Z</time>
      </trkpt>
      <trkpt lat="48.39461" lon="2.52177">
        <ele>118.860107</ele>
        <time>2012-05-07T13:17:44Z</time>
      </trkpt>
      <trkpt lat="48.39455" lon="2.52186">
        <ele>118.860107</ele>
        <time>2012-05-07T13:17:51Z</time>
      </trkpt>
      <trkpt lat="48.39454" lon="2.5219">
        <ele>118.379395</ele>
        <time>2012-05-07T13:17:58Z</time>
      </trkpt>
      <trkpt lat="48.39447" lon="2.522">
        <ele>118.379395</ele>
        <time>2012-05-07T13:18:06Z</time>
      </trkpt>
      <trkpt lat="48.39445" lon="2.52209">
        <ele>117.898804</ele>
        <time>2012-05-07T13:18:14Z</time>
      </trkpt>
      <trkpt lat="48.39442" lon="2.52215">
        <ele>117.418213</ele>
        <time>2012-05-07T13:18:21Z</time>
      </trkpt>
      <trkpt lat="48.39437" lon="2.52221">
        <ele>116.456787</ele>
        <time>2012-05-07T13:18:29Z</time>
      </trkpt>
      <trkpt lat="48.39431" lon="2.52226">
        <ele>115.976196</ele>
        <time>2012-05-07T13:18:36Z</time>
      </trkpt>
      <trkpt lat="48.39422" lon="2.52226">
        <ele>115.495605</ele>
        <time>2012-05-07T13:18:44Z</time>
      </trkpt>
      <trkpt lat="48.39413" lon="2.52228">
        <ele>115.014893</ele>
        <time>2012-05-07T13:18:52Z</time>
      </trkpt>
      <trkpt lat="48.39407" lon="2.52225">
        <ele>115.495605</ele>
        <time>2012-05-07T13:18:59Z</time>
      </trkpt>
      <trkpt lat="48.39399" lon="2.52225">
        <ele>115.976196</ele>
        <time>2012-05-07T13:19:07Z</time>
      </trkpt>
      <trkpt lat="48.39397" lon="2.52225">
        <ele>117.418213</ele>
        <time>2012-05-07T13:19:14Z</time>
      </trkpt>
      <trkpt lat="48.39393" lon="2.52229">
        <ele>117.898804</ele>
        <time>2012-05-07T13:19:21Z</time>
      </trkpt>
      <trkpt lat="48.39384" lon="2.52236">
        <ele>119.821411</ele>
        <time>2012-05-07T13:19:30Z</time>
      </trkpt>
      <trkpt lat="48.39382" lon="2.52241">
        <ele>120.782837</ele>
        <time>2012-05-07T13:19:34Z</time>
      </trkpt>
      <trkpt lat="48.39376" lon="2.52254">
        <ele>121.744141</ele>
        <time>2012-05-07T13:19:44Z</time>
      </trkpt>
      <trkpt lat="48.39374" lon="2.5226">
        <ele>122.224731</ele>
        <time>2012-05-07T13:19:48Z</time>
      </trkpt>
      <trkpt lat="48.39374" lon="2.52271">
        <ele>122.224731</ele>
        <time>2012-05-07T13:19:57Z</time>
      </trkpt>
      <trkpt lat="48.39371" lon="2.52276">
        <ele>121.26355</ele>
        <time>2012-05-07T13:20:02Z</time>
      </trkpt>
      <trkpt lat="48.39369" lon="2.52293">
        <ele>122.224731</ele>
        <time>2012-05-07T13:20:11Z</time>
      </trkpt>
      <trkpt lat="48.39368" lon="2.52297">
        <ele>121.26355</ele>
        <time>2012-05-07T13:20:17Z</time>
      </trkpt>
      <trkpt lat="48.39366" lon="2.523">
        <ele>121.26355</ele>
        <time>2012-05-07T13:20:20Z</time>
      </trkpt>
      <trkpt lat="48.39363" lon="2.52306">
        <ele>120.302124</ele>
        <time>2012-05-07T13:20:24Z</time>
      </trkpt>
      <trkpt lat="48.39363" lon="2.52316">
        <ele>119.821411</ele>
        <time>2012-05-07T13:20:33Z</time>
      </trkpt>
      <trkpt lat="48.39362" lon="2.52323">
        <ele>119.821411</ele>
        <time>2012-05-07T13:20:38Z</time>
      </trkpt>
      <trkpt lat="48.39362" lon="2.52337">
        <ele>118.860107</ele>
        <time>2012-05-07T13:20:47Z</time>
      </trkpt>
      <trkpt lat="48.39361" lon="2.52345">
        <ele>117.898804</ele>
        <time>2012-05-07T13:20:54Z</time>
      </trkpt>
      <trkpt lat="48.3936" lon="2.52351">
        <ele>116.9375</ele>
        <time>2012-05-07T13:21:02Z</time>
      </trkpt>
      <trkpt lat="48.39362" lon="2.52358">
        <ele>115.014893</ele>
        <time>2012-05-07T13:21:08Z</time>
      </trkpt>
      <trkpt lat="48.39362" lon="2.52371">
        <ele>114.53418</ele>
        <time>2012-05-07T13:21:18Z</time>
      </trkpt>
      <trkpt lat="48.39362" lon="2.52373">
        <ele>113.572998</ele>
        <time>2012-05-07T13:21:21Z</time>
      </trkpt>
      <trkpt lat="48.39356" lon="2.52379">
        <ele>113.092285</ele>
        <time>2012-05-07T13:21:26Z</time>
      </trkpt>
      <trkpt lat="48.39353" lon="2.52397">
        <ele>111.169556</ele>
        <time>2012-05-07T13:21:36Z</time>
      </trkpt>
      <trkpt lat="48.39354" lon="2.52405">
        <ele>110.208252</ele>
        <time>2012-05-07T13:21:44Z</time>
      </trkpt>
      <trkpt lat="48.39354" lon="2.52417">
        <ele>109.727661</ele>
        <time>2012-05-07T13:21:52Z</time>
      </trkpt>
      <trkpt lat="48.39359" lon="2.52428">
        <ele>109.727661</ele>
        <time>2012-05-07T13:21:59Z</time>
      </trkpt>
      <trkpt lat="48.39366" lon="2.52439">
        <ele>110.208252</ele>
        <time>2012-05-07T13:22:06Z</time>
      </trkpt>
      <trkpt lat="48.39372" lon="2.52447">
        <ele>109.727661</ele>
        <time>2012-05-07T13:22:13Z</time>
      </trkpt>
      <trkpt lat="48.39377" lon="2.52459">
        <ele>110.208252</ele>
        <time>2012-05-07T13:22:22Z</time>
      </trkpt>
      <trkpt lat="48.39381" lon="2.52463">
        <ele>110.208252</ele>
        <time>2012-05-07T13:22:29Z</time>
      </trkpt>
      <trkpt lat="48.39384" lon="2.52464">
        <ele>111.169556</ele>
        <time>2012-05-07T13:22:36Z</time>
      </trkpt>
      <trkpt lat="48.39386" lon="2.52464">
        <ele>112.130981</ele>
        <time>2012-05-07T13:22:48Z</time>
      </trkpt>
      <trkpt lat="48.39387" lon="2.52468">
        <ele>113.092285</ele>
        <time>2012-05-07T13:22:56Z</time>
      </trkpt>
      <trkpt lat="48.39385" lon="2.52473">
        <ele>114.053589</ele>
        <time>2012-05-07T13:23:03Z</time>
      </trkpt>
      <trkpt lat="48.39389" lon="2.52477">
        <ele>115.014893</ele>
        <time>2012-05-07T13:23:17Z</time>
      </trkpt>
      <trkpt lat="48.39392" lon="2.52476">
        <ele>114.53418</ele>
        <time>2012-05-07T13:23:24Z</time>
      </trkpt>
      <trkpt lat="48.39388" lon="2.5248">
        <ele>115.976196</ele>
        <time>2012-05-07T13:23:32Z</time>
      </trkpt>
      <trkpt lat="48.39394" lon="2.52484">
        <ele>115.976196</ele>
        <time>2012-05-07T13:23:42Z</time>
      </trkpt>
      <trkpt lat="48.39393" lon="2.52489">
        <ele>117.418213</ele>
        <time>2012-05-07T13:23:48Z</time>
      </trkpt>
      <trkpt lat="48.39393" lon="2.52495">
        <ele>117.898804</ele>
        <time>2012-05-07T13:23:53Z</time>
      </trkpt>
      <trkpt lat="48.39396" lon="2.52507">
        <ele>119.34082</ele>
        <time>2012-05-07T13:24:04Z</time>
      </trkpt>
      <trkpt lat="48.39399" lon="2.52511">
        <ele>120.782837</ele>
        <time>2012-05-07T13:24:12Z</time>
      </trkpt>
      <trkpt lat="48.39403" lon="2.52516">
        <ele>120.782837</ele>
        <time>2012-05-07T13:24:22Z</time>
      </trkpt>
      <trkpt lat="48.39403" lon="2.52523">
        <ele>122.224731</ele>
        <time>2012-05-07T13:25:29Z</time>
      </trkpt>
      <trkpt lat="48.39404" lon="2.52527">
        <ele>122.705444</ele>
        <time>2012-05-07T13:25:36Z</time>
      </trkpt>
      <trkpt lat="48.39404" lon="2.52527">
        <ele>117.898804</ele>
        <time>2012-05-07T13:25:38Z</time>
      </trkpt>
      <trkpt lat="48.39403" lon="2.52528">
        <ele>121.744141</ele>
        <time>2012-05-07T13:26:06Z</time>
      </trkpt>
      <trkpt lat="48.394" lon="2.52524">
        <ele>121.744141</ele>
        <time>2012-05-07T13:26:42Z</time>
      </trkpt>
      <trkpt lat="48.39398" lon="2.52525">
        <ele>121.26355</ele>
        <time>2012-05-07T13:26:50Z</time>
      </trkpt>
      <trkpt lat="48.39397" lon="2.52532">
        <ele>120.302124</ele>
        <time>2012-05-07T13:26:57Z</time>
      </trkpt>
      <trkpt lat="48.39399" lon="2.52545">
        <ele>120.302124</ele>
        <time>2012-05-07T13:27:05Z</time>
      </trkpt>
      <trkpt lat="48.39399" lon="2.52548">
        <ele>120.302124</ele>
        <time>2012-05-07T13:27:08Z</time>
      </trkpt>
      <trkpt lat="48.39399" lon="2.52563">
        <ele>121.744141</ele>
        <time>2012-05-07T13:27:18Z</time>
      </trkpt>
      <trkpt lat="48.39398" lon="2.52574">
        <ele>122.224731</ele>
        <time>2012-05-07T13:27:27Z</time>
      </trkpt>
      <trkpt lat="48.39395" lon="2.52586">
        <ele>121.26355</ele>
        <time>2012-05-07T13:27:36Z</time>
      </trkpt>
      <trkpt lat="48.39392" lon="2.52597">
        <ele>121.744141</ele>
        <time>2012-05-07T13:27:44Z</time>
      </trkpt>
      <trkpt lat="48.39392" lon="2.52611">
        <ele>121.744141</ele>
        <time>2012-05-07T13:27:53Z</time>
      </trkpt>
      <trkpt lat="48.39394" lon="2.52627">
        <ele>120.302124</ele>
        <time>2012-05-07T13:28:02Z</time>
      </trkpt>
      <trkpt lat="48.39389" lon="2.52636">
        <ele>118.379395</ele>
        <time>2012-05-07T13:28:12Z</time>
      </trkpt>
      <trkpt lat="48.39385" lon="2.52651">
        <ele>116.9375</ele>
        <time>2012-05-07T13:28:21Z</time>
      </trkpt>
      <trkpt lat="48.39386" lon="2.52662">
        <ele>115.495605</ele>
        <time>2012-05-07T13:28:29Z</time>
      </trkpt>
      <trkpt lat="48.39384" lon="2.52677">
        <ele>113.092285</ele>
        <time>2012-05-07T13:28:39Z</time>
      </trkpt>
      <trkpt lat="48.39382" lon="2.52679">
        <ele>112.611572</ele>
        <time>2012-05-07T13:28:41Z</time>
      </trkpt>
      <trkpt lat="48.39375" lon="2.5269">
        <ele>111.650269</ele>
        <time>2012-05-07T13:28:52Z</time>
      </trkpt>
      <trkpt lat="48.39375" lon="2.52697">
        <ele>110.688843</ele>
        <time>2012-05-07T13:30:07Z</time>
      </trkpt>
      <trkpt lat="48.39372" lon="2.52689">
        <ele>110.688843</ele>
        <time>2012-05-07T13:30:20Z</time>
      </trkpt>
      <trkpt lat="48.39367" lon="2.52699">
        <ele>111.650269</ele>
        <time>2012-05-07T13:30:35Z</time>
      </trkpt>
      <trkpt lat="48.39368" lon="2.52703">
        <ele>113.092285</ele>
        <time>2012-05-07T13:30:43Z</time>
      </trkpt>
      <trkpt lat="48.39372" lon="2.52711">
        <ele>114.053589</ele>
        <time>2012-05-07T13:30:50Z</time>
      </trkpt>
      <trkpt lat="48.39368" lon="2.52716">
        <ele>115.495605</ele>
        <time>2012-05-07T13:30:59Z</time>
      </trkpt>
      <trkpt lat="48.39366" lon="2.5272">
        <ele>115.014893</ele>
        <time>2012-05-07T13:31:09Z</time>
      </trkpt>
      <trkpt lat="48.39366" lon="2.52722">
        <ele>114.53418</ele>
        <time>2012-05-07T13:31:15Z</time>
      </trkpt>
      <trkpt lat="48.39365" lon="2.52728">
        <ele>114.053589</ele>
        <time>2012-05-07T13:31:24Z</time>
      </trkpt>
      <trkpt lat="48.39358" lon="2.52732">
        <ele>113.572998</ele>
        <time>2012-05-07T13:31:32Z</time>
      </trkpt>
      <trkpt lat="48.39352" lon="2.5274">
        <ele>114.53418</ele>
        <time>2012-05-07T13:31:41Z</time>
      </trkpt>
      <trkpt lat="48.39344" lon="2.52749">
        <ele>115.014893</ele>
        <time>2012-05-07T13:31:50Z</time>
      </trkpt>
      <trkpt lat="48.3934" lon="2.5276">
        <ele>113.572998</ele>
        <time>2012-05-07T13:32:00Z</time>
      </trkpt>
      <trkpt lat="48.39338" lon="2.52765">
        <ele>112.611572</ele>
        <time>2012-05-07T13:32:10Z</time>
      </trkpt>
      <trkpt lat="48.39329" lon="2.52768">
        <ele>113.572998</ele>
        <time>2012-05-07T13:32:18Z</time>
      </trkpt>
      <trkpt lat="48.39319" lon="2.52773">
        <ele>115.014893</ele>
        <time>2012-05-07T13:32:26Z</time>
      </trkpt>
      <trkpt lat="48.39315" lon="2.52779">
        <ele>116.456787</ele>
        <time>2012-05-07T13:32:34Z</time>
      </trkpt>
      <trkpt lat="48.39308" lon="2.52785">
        <ele>117.898804</ele>
        <time>2012-05-07T13:32:44Z</time>
      </trkpt>
      <trkpt lat="48.393" lon="2.52788">
        <ele>120.302124</ele>
        <time>2012-05-07T13:32:53Z</time>
      </trkpt>
      <trkpt lat="48.39299" lon="2.52793">
        <ele>121.26355</ele>
        <time>2012-05-07T13:33:00Z</time>
      </trkpt>
      <trkpt lat="48.39296" lon="2.52798">
        <ele>121.26355</ele>
        <time>2012-05-07T13:33:10Z</time>
      </trkpt>
      <trkpt lat="48.39295" lon="2.52796">
        <ele>122.224731</ele>
        <time>2012-05-07T13:33:18Z</time>
      </trkpt>
      <trkpt lat="48.39291" lon="2.52797">
        <ele>124.147339</ele>
        <time>2012-05-07T13:33:30Z</time>
      </trkpt>
      <trkpt lat="48.39285" lon="2.52794">
        <ele>124.147339</ele>
        <time>2012-05-07T13:33:37Z</time>
      </trkpt>
      <trkpt lat="48.39282" lon="2.52786">
        <ele>124.147339</ele>
        <time>2012-05-07T13:33:46Z</time>
      </trkpt>
      <trkpt lat="48.39278" lon="2.52784">
        <ele>124.147339</ele>
        <time>2012-05-07T13:33:53Z</time>
      </trkpt>
      <trkpt lat="48.39273" lon="2.52781">
        <ele>124.628052</ele>
        <time>2012-05-07T13:33:59Z</time>
      </trkpt>
      <trkpt lat="48.39268" lon="2.52778">
        <ele>124.147339</ele>
        <time>2012-05-07T13:34:04Z</time>
      </trkpt>
      <trkpt lat="48.39264" lon="2.5277">
        <ele>124.147339</ele>
        <time>2012-05-07T13:34:12Z</time>
      </trkpt>
      <trkpt lat="48.39258" lon="2.52768">
        <ele>124.147339</ele>
        <time>2012-05-07T13:34:19Z</time>
      </trkpt>
      <trkpt lat="48.39252" lon="2.52767">
        <ele>123.186157</ele>
        <time>2012-05-07T13:34:27Z</time>
      </trkpt>
      <trkpt lat="48.39247" lon="2.52767">
        <ele>122.224731</ele>
        <time>2012-05-07T13:34:34Z</time>
      </trkpt>
      <trkpt lat="48.39243" lon="2.52764">
        <ele>120.782837</ele>
        <time>2012-05-07T13:34:40Z</time>
      </trkpt>
      <trkpt lat="48.39241" lon="2.5276">
        <ele>119.821411</ele>
        <time>2012-05-07T13:34:48Z</time>
      </trkpt>
      <trkpt lat="48.39238" lon="2.52757">
        <ele>117.898804</ele>
        <time>2012-05-07T13:34:57Z</time>
      </trkpt>
      <trkpt lat="48.39233" lon="2.52758">
        <ele>117.418213</ele>
        <time>2012-05-07T13:35:05Z</time>
      </trkpt>
      <trkpt lat="48.39227" lon="2.52754">
        <ele>116.456787</ele>
        <time>2012-05-07T13:35:14Z</time>
      </trkpt>
      <trkpt lat="48.3922" lon="2.52752">
        <ele>115.014893</ele>
        <time>2012-05-07T13:35:22Z</time>
      </trkpt>
      <trkpt lat="48.39215" lon="2.52751">
        <ele>114.053589</ele>
        <time>2012-05-07T13:35:28Z</time>
      </trkpt>
      <trkpt lat="48.39208" lon="2.52749">
        <ele>113.092285</ele>
        <time>2012-05-07T13:35:38Z</time>
      </trkpt>
      <trkpt lat="48.39203" lon="2.52749">
        <ele>111.650269</ele>
        <time>2012-05-07T13:35:46Z</time>
      </trkpt>
      <trkpt lat="48.39198" lon="2.52745">
        <ele>109.727661</ele>
        <time>2012-05-07T13:35:54Z</time>
      </trkpt>
      <trkpt lat="48.39196" lon="2.52747">
        <ele>109.246948</ele>
        <time>2012-05-07T13:36:00Z</time>
      </trkpt>
      <trkpt lat="48.3919" lon="2.52742">
        <ele>107.805054</ele>
        <time>2012-05-07T13:36:13Z</time>
      </trkpt>
      <trkpt lat="48.39184" lon="2.52734">
        <ele>107.324341</ele>
        <time>2012-05-07T13:36:26Z</time>
      </trkpt>
      <trkpt lat="48.39181" lon="2.52736">
        <ele>105.882446</ele>
        <time>2012-05-07T13:36:34Z</time>
      </trkpt>
      <trkpt lat="48.39182" lon="2.52733">
        <ele>104.921021</ele>
        <time>2012-05-07T13:36:43Z</time>
      </trkpt>
      <trkpt lat="48.3918" lon="2.5273">
        <ele>104.921021</ele>
        <time>2012-05-07T13:36:54Z</time>
      </trkpt>
      <trkpt lat="48.39179" lon="2.52727">
        <ele>105.401733</ele>
        <time>2012-05-07T13:37:05Z</time>
      </trkpt>
      <trkpt lat="48.39174" lon="2.52725">
        <ele>105.401733</ele>
        <time>2012-05-07T13:37:11Z</time>
      </trkpt>
      <trkpt lat="48.39164" lon="2.52726">
        <ele>106.843628</ele>
        <time>2012-05-07T13:37:20Z</time>
      </trkpt>
      <trkpt lat="48.39161" lon="2.52729">
        <ele>108.285645</ele>
        <time>2012-05-07T13:37:30Z</time>
      </trkpt>
      <trkpt lat="48.39155" lon="2.52729">
        <ele>109.246948</ele>
        <time>2012-05-07T13:37:37Z</time>
      </trkpt>
      <trkpt lat="48.39154" lon="2.52732">
        <ele>110.688843</ele>
        <time>2012-05-07T13:37:45Z</time>
      </trkpt>
      <trkpt lat="48.39148" lon="2.52736">
        <ele>112.130981</ele>
        <time>2012-05-07T13:37:53Z</time>
      </trkpt>
      <trkpt lat="48.39144" lon="2.52745">
        <ele>114.053589</ele>
        <time>2012-05-07T13:38:01Z</time>
      </trkpt>
      <trkpt lat="48.39139" lon="2.52753">
        <ele>115.014893</ele>
        <time>2012-05-07T13:38:08Z</time>
      </trkpt>
      <trkpt lat="48.39134" lon="2.52759">
        <ele>115.014893</ele>
        <time>2012-05-07T13:38:15Z</time>
      </trkpt>
      <trkpt lat="48.39127" lon="2.52772">
        <ele>116.456787</ele>
        <time>2012-05-07T13:38:25Z</time>
      </trkpt>
      <trkpt lat="48.39126" lon="2.52783">
        <ele>118.379395</ele>
        <time>2012-05-07T13:38:33Z</time>
      </trkpt>
      <trkpt lat="48.39124" lon="2.5279">
        <ele>120.302124</ele>
        <time>2012-05-07T13:38:48Z</time>
      </trkpt>
      <trkpt lat="48.39124" lon="2.52797">
        <ele>121.26355</ele>
        <time>2012-05-07T13:38:58Z</time>
      </trkpt>
      <trkpt lat="48.39127" lon="2.52808">
        <ele>121.26355</ele>
        <time>2012-05-07T13:39:08Z</time>
      </trkpt>
      <trkpt lat="48.39126" lon="2.52818">
        <ele>121.744141</ele>
        <time>2012-05-07T13:39:15Z</time>
      </trkpt>
      <trkpt lat="48.39124" lon="2.52827">
        <ele>123.186157</ele>
        <time>2012-05-07T13:39:24Z</time>
      </trkpt>
      <trkpt lat="48.39124" lon="2.52836">
        <ele>123.666748</ele>
        <time>2012-05-07T13:39:31Z</time>
      </trkpt>
      <trkpt lat="48.39122" lon="2.52844">
        <ele>124.628052</ele>
        <time>2012-05-07T13:39:38Z</time>
      </trkpt>
      <trkpt lat="48.39118" lon="2.52855">
        <ele>125.589355</ele>
        <time>2012-05-07T13:39:47Z</time>
      </trkpt>
      <trkpt lat="48.39114" lon="2.5286">
        <ele>126.550659</ele>
        <time>2012-05-07T13:39:54Z</time>
      </trkpt>
      <trkpt lat="48.39111" lon="2.52862">
        <ele>127.992554</ele>
        <time>2012-05-07T13:40:00Z</time>
      </trkpt>
      <trkpt lat="48.39107" lon="2.52863">
        <ele>128.954102</ele>
        <time>2012-05-07T13:40:09Z</time>
      </trkpt>
      <trkpt lat="48.39103" lon="2.5286">
        <ele>128.954102</ele>
        <time>2012-05-07T13:40:16Z</time>
      </trkpt>
      <trkpt lat="48.39097" lon="2.5286">
        <ele>128.954102</ele>
        <time>2012-05-07T13:40:23Z</time>
      </trkpt>
      <trkpt lat="48.39092" lon="2.52864">
        <ele>127.992554</ele>
        <time>2012-05-07T13:40:31Z</time>
      </trkpt>
      <trkpt lat="48.39089" lon="2.52875">
        <ele>127.511963</ele>
        <time>2012-05-07T13:40:40Z</time>
      </trkpt>
      <trkpt lat="48.39085" lon="2.5289">
        <ele>127.031372</ele>
        <time>2012-05-07T13:40:51Z</time>
      </trkpt>
      <trkpt lat="48.39084" lon="2.52899">
        <ele>127.511963</ele>
        <time>2012-05-07T13:41:01Z</time>
      </trkpt>
      <trkpt lat="48.39085" lon="2.52904">
        <ele>128.954102</ele>
        <time>2012-05-07T13:41:11Z</time>
      </trkpt>
      <trkpt lat="48.39086" lon="2.52908">
        <ele>128.473389</ele>
        <time>2012-05-07T13:41:19Z</time>
      </trkpt>
      <trkpt lat="48.39085" lon="2.52913">
        <ele>128.954102</ele>
        <time>2012-05-07T13:41:26Z</time>
      </trkpt>
      <trkpt lat="48.39084" lon="2.52918">
        <ele>128.473389</ele>
        <time>2012-05-07T13:41:34Z</time>
      </trkpt>
      <trkpt lat="48.39083" lon="2.52924">
        <ele>128.473389</ele>
        <time>2012-05-07T13:41:42Z</time>
      </trkpt>
      <trkpt lat="48.39082" lon="2.52931">
        <ele>127.992554</ele>
        <time>2012-05-07T13:41:49Z</time>
      </trkpt>
      <trkpt lat="48.39081" lon="2.5294">
        <ele>127.992554</ele>
        <time>2012-05-07T13:41:56Z</time>
      </trkpt>
      <trkpt lat="48.3908" lon="2.52943">
        <ele>127.992554</ele>
        <time>2012-05-07T13:42:03Z</time>
      </trkpt>
      <trkpt lat="48.3908" lon="2.52949">
        <ele>128.473389</ele>
        <time>2012-05-07T13:42:11Z</time>
      </trkpt>
      <trkpt lat="48.39077" lon="2.52956">
        <ele>128.473389</ele>
        <time>2012-05-07T13:42:20Z</time>
      </trkpt>
      <trkpt lat="48.39076" lon="2.52959">
        <ele>127.992554</ele>
        <time>2012-05-07T13:42:27Z</time>
      </trkpt>
      <trkpt lat="48.39074" lon="2.52962">
        <ele>127.031372</ele>
        <time>2012-05-07T13:42:35Z</time>
      </trkpt>
      <trkpt lat="48.39072" lon="2.52965">
        <ele>127.031372</ele>
        <time>2012-05-07T13:42:41Z</time>
      </trkpt>
      <trkpt lat="48.39072" lon="2.52974">
        <ele>127.031372</ele>
        <time>2012-05-07T13:42:49Z</time>
      </trkpt>
      <trkpt lat="48.3907" lon="2.52982">
        <ele>127.511963</ele>
        <time>2012-05-07T13:42:57Z</time>
      </trkpt>
      <trkpt lat="48.39069" lon="2.52989">
        <ele>127.511963</ele>
        <time>2012-05-07T13:43:04Z</time>
      </trkpt>
      <trkpt lat="48.39066" lon="2.53002">
        <ele>126.069946</ele>
        <time>2012-05-07T13:43:13Z</time>
      </trkpt>
      <trkpt lat="48.39066" lon="2.53009">
        <ele>126.550659</ele>
        <time>2012-05-07T13:43:19Z</time>
      </trkpt>
      <trkpt lat="48.39067" lon="2.53015">
        <ele>126.550659</ele>
        <time>2012-05-07T13:43:31Z</time>
      </trkpt>
      <trkpt lat="48.39068" lon="2.53019">
        <ele>126.550659</ele>
        <time>2012-05-07T13:44:04Z</time>
      </trkpt>
      <trkpt lat="48.39068" lon="2.53021">
        <ele>125.108765</ele>
        <time>2012-05-07T13:45:22Z</time>
      </trkpt>
      <trkpt lat="48.39065" lon="2.5303">
        <ele>124.628052</ele>
        <time>2012-05-07T13:45:31Z</time>
      </trkpt>
      <trkpt lat="48.39063" lon="2.53034">
        <ele>123.666748</ele>
        <time>2012-05-07T13:45:42Z</time>
      </trkpt>
      <trkpt lat="48.39063" lon="2.53036">
        <ele>123.666748</ele>
        <time>2012-05-07T13:45:57Z</time>
      </trkpt>
      <trkpt lat="48.39063" lon="2.53039">
        <ele>124.147339</ele>
        <time>2012-05-07T13:47:11Z</time>
      </trkpt>
      <trkpt lat="48.39063" lon="2.53044">
        <ele>123.666748</ele>
        <time>2012-05-07T13:47:19Z</time>
      </trkpt>
      <trkpt lat="48.3906" lon="2.53052">
        <ele>123.666748</ele>
        <time>2012-05-07T13:47:26Z</time>
      </trkpt>
      <trkpt lat="48.39061" lon="2.5306">
        <ele>123.666748</ele>
        <time>2012-05-07T13:47:31Z</time>
      </trkpt>
      <trkpt lat="48.39059" lon="2.53072">
        <ele>124.628052</ele>
        <time>2012-05-07T13:47:38Z</time>
      </trkpt>
      <trkpt lat="48.39059" lon="2.53084">
        <ele>124.147339</ele>
        <time>2012-05-07T13:47:46Z</time>
      </trkpt>
      <trkpt lat="48.39058" lon="2.53089">
        <ele>124.628052</ele>
        <time>2012-05-07T13:47:49Z</time>
      </trkpt>
      <trkpt lat="48.39058" lon="2.53101">
        <ele>124.147339</ele>
        <time>2012-05-07T13:47:56Z</time>
      </trkpt>
      <trkpt lat="48.39058" lon="2.53113">
        <ele>123.666748</ele>
        <time>2012-05-07T13:48:03Z</time>
      </trkpt>
      <trkpt lat="48.39056" lon="2.53121">
        <ele>123.666748</ele>
        <time>2012-05-07T13:48:08Z</time>
      </trkpt>
      <trkpt lat="48.39056" lon="2.53136">
        <ele>123.186157</ele>
        <time>2012-05-07T13:48:16Z</time>
      </trkpt>
      <trkpt lat="48.39052" lon="2.53148">
        <ele>124.147339</ele>
        <time>2012-05-07T13:48:25Z</time>
      </trkpt>
      <trkpt lat="48.39051" lon="2.53154">
        <ele>124.147339</ele>
        <time>2012-05-07T13:48:32Z</time>
      </trkpt>
      <trkpt lat="48.39051" lon="2.5316">
        <ele>124.147339</ele>
        <time>2012-05-07T13:48:37Z</time>
      </trkpt>
      <trkpt lat="48.39044" lon="2.53169">
        <ele>124.147339</ele>
        <time>2012-05-07T13:48:45Z</time>
      </trkpt>
      <trkpt lat="48.39041" lon="2.53183">
        <ele>124.147339</ele>
        <time>2012-05-07T13:48:53Z</time>
      </trkpt>
      <trkpt lat="48.39039" lon="2.53193">
        <ele>125.108765</ele>
        <time>2012-05-07T13:49:00Z</time>
      </trkpt>
      <trkpt lat="48.39038" lon="2.53201">
        <ele>123.666748</ele>
        <time>2012-05-07T13:49:07Z</time>
      </trkpt>
      <trkpt lat="48.39038" lon="2.53209">
        <ele>123.186157</ele>
        <time>2012-05-07T13:49:14Z</time>
      </trkpt>
      <trkpt lat="48.39038" lon="2.53217">
        <ele>121.744141</ele>
        <time>2012-05-07T13:49:23Z</time>
      </trkpt>
      <trkpt lat="48.39038" lon="2.53226">
        <ele>120.782837</ele>
        <time>2012-05-07T13:49:32Z</time>
      </trkpt>
      <trkpt lat="48.3904" lon="2.5323">
        <ele>119.821411</ele>
        <time>2012-05-07T13:49:41Z</time>
      </trkpt>
      <trkpt lat="48.39041" lon="2.53232">
        <ele>119.34082</ele>
        <time>2012-05-07T13:49:49Z</time>
      </trkpt>
      <trkpt lat="48.39041" lon="2.53234">
        <ele>118.379395</ele>
        <time>2012-05-07T13:49:55Z</time>
      </trkpt>
      <trkpt lat="48.39039" lon="2.53235">
        <ele>117.898804</ele>
        <time>2012-05-07T13:50:06Z</time>
      </trkpt>
      <trkpt lat="48.3904" lon="2.5324">
        <ele>116.9375</ele>
        <time>2012-05-07T13:50:17Z</time>
      </trkpt>
      <trkpt lat="48.39038" lon="2.53244">
        <ele>115.495605</ele>
        <time>2012-05-07T13:50:24Z</time>
      </trkpt>
      <trkpt lat="48.39036" lon="2.53252">
        <ele>115.495605</ele>
        <time>2012-05-07T13:50:31Z</time>
      </trkpt>
      <trkpt lat="48.39038" lon="2.53261">
        <ele>115.014893</ele>
        <time>2012-05-07T13:50:40Z</time>
      </trkpt>
      <trkpt lat="48.39044" lon="2.5327">
        <ele>116.456787</ele>
        <time>2012-05-07T13:50:49Z</time>
      </trkpt>
      <trkpt lat="48.39049" lon="2.53279">
        <ele>118.379395</ele>
        <time>2012-05-07T13:50:57Z</time>
      </trkpt>
      <trkpt lat="48.39053" lon="2.53288">
        <ele>118.860107</ele>
        <time>2012-05-07T13:51:06Z</time>
      </trkpt>
      <trkpt lat="48.39059" lon="2.53297">
        <ele>119.821411</ele>
        <time>2012-05-07T13:51:15Z</time>
      </trkpt>
      <trkpt lat="48.39059" lon="2.53305">
        <ele>121.744141</ele>
        <time>2012-05-07T13:51:26Z</time>
      </trkpt>
      <trkpt lat="48.39061" lon="2.53313">
        <ele>123.186157</ele>
        <time>2012-05-07T13:51:34Z</time>
      </trkpt>
      <trkpt lat="48.3906" lon="2.53317">
        <ele>124.628052</ele>
        <time>2012-05-07T13:51:43Z</time>
      </trkpt>
      <trkpt lat="48.39056" lon="2.5332">
        <ele>125.108765</ele>
        <time>2012-05-07T13:51:50Z</time>
      </trkpt>
      <trkpt lat="48.3905" lon="2.5332">
        <ele>125.589355</ele>
        <time>2012-05-07T13:51:59Z</time>
      </trkpt>
      <trkpt lat="48.39044" lon="2.53325">
        <ele>126.550659</ele>
        <time>2012-05-07T13:52:07Z</time>
      </trkpt>
      <trkpt lat="48.39037" lon="2.53335">
        <ele>127.992554</ele>
        <time>2012-05-07T13:52:15Z</time>
      </trkpt>
      <trkpt lat="48.39031" lon="2.53344">
        <ele>127.992554</ele>
        <time>2012-05-07T13:52:24Z</time>
      </trkpt>
      <trkpt lat="48.39033" lon="2.53355">
        <ele>128.473389</ele>
        <time>2012-05-07T13:52:32Z</time>
      </trkpt>
      <trkpt lat="48.39035" lon="2.53357">
        <ele>129.434692</ele>
        <time>2012-05-07T13:52:39Z</time>
      </trkpt>
      <trkpt lat="48.39037" lon="2.53361">
        <ele>128.473389</ele>
        <time>2012-05-07T13:52:51Z</time>
      </trkpt>
      <trkpt lat="48.39042" lon="2.5336">
        <ele>127.992554</ele>
        <time>2012-05-07T13:52:58Z</time>
      </trkpt>
      <trkpt lat="48.39048" lon="2.53363">
        <ele>127.031372</ele>
        <time>2012-05-07T13:53:07Z</time>
      </trkpt>
      <trkpt lat="48.39051" lon="2.53364">
        <ele>126.550659</ele>
        <time>2012-05-07T13:53:14Z</time>
      </trkpt>
      <trkpt lat="48.39056" lon="2.5336">
        <ele>126.550659</ele>
        <time>2012-05-07T13:53:21Z</time>
      </trkpt>
      <trkpt lat="48.39064" lon="2.53356">
        <ele>126.069946</ele>
        <time>2012-05-07T13:53:30Z</time>
      </trkpt>
      <trkpt lat="48.39076" lon="2.53355">
        <ele>125.108765</ele>
        <time>2012-05-07T13:53:41Z</time>
      </trkpt>
      <trkpt lat="48.39082" lon="2.53354">
        <ele>125.589355</ele>
        <time>2012-05-07T13:53:48Z</time>
      </trkpt>
      <trkpt lat="48.3909" lon="2.53353">
        <ele>126.550659</ele>
        <time>2012-05-07T13:53:56Z</time>
      </trkpt>
      <trkpt lat="48.39095" lon="2.53353">
        <ele>127.992554</ele>
        <time>2012-05-07T13:54:04Z</time>
      </trkpt>
      <trkpt lat="48.39102" lon="2.53354">
        <ele>127.992554</ele>
        <time>2012-05-07T13:54:11Z</time>
      </trkpt>
      <trkpt lat="48.39109" lon="2.53357">
        <ele>128.473389</ele>
        <time>2012-05-07T13:54:17Z</time>
      </trkpt>
      <trkpt lat="48.39118" lon="2.53354">
        <ele>129.434692</ele>
        <time>2012-05-07T13:54:25Z</time>
      </trkpt>
      <trkpt lat="48.3912" lon="2.53353">
        <ele>129.434692</ele>
        <time>2012-05-07T13:54:27Z</time>
      </trkpt>
      <trkpt lat="48.39128" lon="2.53347">
        <ele>128.954102</ele>
        <time>2012-05-07T13:54:35Z</time>
      </trkpt>
      <trkpt lat="48.39135" lon="2.53339">
        <ele>128.954102</ele>
        <time>2012-05-07T13:54:42Z</time>
      </trkpt>
      <trkpt lat="48.39142" lon="2.53338">
        <ele>129.434692</ele>
        <time>2012-05-07T13:54:50Z</time>
      </trkpt>
      <trkpt lat="48.39149" lon="2.53337">
        <ele>129.434692</ele>
        <time>2012-05-07T13:54:57Z</time>
      </trkpt>
      <trkpt lat="48.39158" lon="2.53329">
        <ele>129.434692</ele>
        <time>2012-05-07T13:55:06Z</time>
      </trkpt>
      <trkpt lat="48.39167" lon="2.53331">
        <ele>127.511963</ele>
        <time>2012-05-07T13:55:16Z</time>
      </trkpt>
      <trkpt lat="48.39172" lon="2.53332">
        <ele>126.550659</ele>
        <time>2012-05-07T13:55:20Z</time>
      </trkpt>
      <trkpt lat="48.39176" lon="2.53336">
        <ele>125.589355</ele>
        <time>2012-05-07T13:55:25Z</time>
      </trkpt>
      <trkpt lat="48.39188" lon="2.53343">
        <ele>124.628052</ele>
        <time>2012-05-07T13:55:36Z</time>
      </trkpt>
      <trkpt lat="48.39199" lon="2.53353">
        <ele>124.147339</ele>
        <time>2012-05-07T13:55:47Z</time>
      </trkpt>
      <trkpt lat="48.39204" lon="2.53358">
        <ele>123.666748</ele>
        <time>2012-05-07T13:55:55Z</time>
      </trkpt>
      <trkpt lat="48.39211" lon="2.53367">
        <ele>124.147339</ele>
        <time>2012-05-07T13:56:02Z</time>
      </trkpt>
      <trkpt lat="48.39218" lon="2.53378">
        <ele>123.666748</ele>
        <time>2012-05-07T13:56:10Z</time>
      </trkpt>
      <trkpt lat="48.39221" lon="2.53387">
        <ele>123.666748</ele>
        <time>2012-05-07T13:56:17Z</time>
      </trkpt>
      <trkpt lat="48.39226" lon="2.53401">
        <ele>124.628052</ele>
        <time>2012-05-07T13:56:26Z</time>
      </trkpt>
      <trkpt lat="48.39229" lon="2.5341">
        <ele>125.589355</ele>
        <time>2012-05-07T13:56:33Z</time>
      </trkpt>
      <trkpt lat="48.39232" lon="2.53423">
        <ele>125.589355</ele>
        <time>2012-05-07T13:56:41Z</time>
      </trkpt>
      <trkpt lat="48.39233" lon="2.53434">
        <ele>126.550659</ele>
        <time>2012-05-07T13:56:47Z</time>
      </trkpt>
      <trkpt lat="48.39232" lon="2.5345">
        <ele>126.069946</ele>
        <time>2012-05-07T13:56:57Z</time>
      </trkpt>
      <trkpt lat="48.39233" lon="2.53456">
        <ele>125.589355</ele>
        <time>2012-05-07T13:57:00Z</time>
      </trkpt>
      <trkpt lat="48.39235" lon="2.53474">
        <ele>126.069946</ele>
        <time>2012-05-07T13:57:08Z</time>
      </trkpt>
      <trkpt lat="48.39234" lon="2.53487">
        <ele>125.589355</ele>
        <time>2012-05-07T13:57:15Z</time>
      </trkpt>
      <trkpt lat="48.39236" lon="2.53505">
        <ele>126.069946</ele>
        <time>2012-05-07T13:57:23Z</time>
      </trkpt>
      <trkpt lat="48.39235" lon="2.53515">
        <ele>125.589355</ele>
        <time>2012-05-07T13:57:29Z</time>
      </trkpt>
      <trkpt lat="48.39235" lon="2.53521">
        <ele>125.589355</ele>
        <time>2012-05-07T13:57:33Z</time>
      </trkpt>
      <trkpt lat="48.39238" lon="2.53531">
        <ele>125.108765</ele>
        <time>2012-05-07T13:57:38Z</time>
      </trkpt>
      <trkpt lat="48.3924" lon="2.53549">
        <ele>125.108765</ele>
        <time>2012-05-07T13:57:47Z</time>
      </trkpt>
      <trkpt lat="48.39245" lon="2.53565">
        <ele>124.147339</ele>
        <time>2012-05-07T13:57:55Z</time>
      </trkpt>
      <trkpt lat="48.39249" lon="2.53572">
        <ele>123.666748</ele>
        <time>2012-05-07T13:58:00Z</time>
      </trkpt>
      <trkpt lat="48.39253" lon="2.53583">
        <ele>123.186157</ele>
        <time>2012-05-07T13:58:09Z</time>
      </trkpt>
      <trkpt lat="48.39257" lon="2.536">
        <ele>121.744141</ele>
        <time>2012-05-07T13:58:19Z</time>
      </trkpt>
      <trkpt lat="48.39257" lon="2.53611">
        <ele>121.744141</ele>
        <time>2012-05-07T13:58:28Z</time>
      </trkpt>
      <trkpt lat="48.39254" lon="2.53628">
        <ele>121.26355</ele>
        <time>2012-05-07T13:58:36Z</time>
      </trkpt>
      <trkpt lat="48.39254" lon="2.53641">
        <ele>121.744141</ele>
        <time>2012-05-07T13:58:43Z</time>
      </trkpt>
      <trkpt lat="48.39249" lon="2.53657">
        <ele>121.26355</ele>
        <time>2012-05-07T13:58:52Z</time>
      </trkpt>
      <trkpt lat="48.39246" lon="2.53669">
        <ele>121.26355</ele>
        <time>2012-05-07T13:58:59Z</time>
      </trkpt>
      <trkpt lat="48.39247" lon="2.53683">
        <ele>121.744141</ele>
        <time>2012-05-07T13:59:06Z</time>
      </trkpt>
      <trkpt lat="48.39247" lon="2.53696">
        <ele>121.744141</ele>
        <time>2012-05-07T13:59:13Z</time>
      </trkpt>
      <trkpt lat="48.39243" lon="2.53708">
        <ele>122.224731</ele>
        <time>2012-05-07T13:59:21Z</time>
      </trkpt>
      <trkpt lat="48.39243" lon="2.53723">
        <ele>121.744141</ele>
        <time>2012-05-07T13:59:30Z</time>
      </trkpt>
      <trkpt lat="48.39243" lon="2.53738">
        <ele>121.26355</ele>
        <time>2012-05-07T13:59:37Z</time>
      </trkpt>
      <trkpt lat="48.39242" lon="2.5375">
        <ele>120.782837</ele>
        <time>2012-05-07T13:59:44Z</time>
      </trkpt>
      <trkpt lat="48.39246" lon="2.53763">
        <ele>120.302124</ele>
        <time>2012-05-07T13:59:52Z</time>
      </trkpt>
      <trkpt lat="48.39247" lon="2.53775">
        <ele>120.302124</ele>
        <time>2012-05-07T14:00:00Z</time>
      </trkpt>
      <trkpt lat="48.39252" lon="2.53792">
        <ele>120.782837</ele>
        <time>2012-05-07T14:00:10Z</time>
      </trkpt>
      <trkpt lat="48.39261" lon="2.53803">
        <ele>120.782837</ele>
        <time>2012-05-07T14:00:19Z</time>
      </trkpt>
      <trkpt lat="48.39264" lon="2.5381">
        <ele>121.26355</ele>
        <time>2012-05-07T14:00:26Z</time>
      </trkpt>
      <trkpt lat="48.39265" lon="2.53815">
        <ele>120.782837</ele>
        <time>2012-05-07T14:00:31Z</time>
      </trkpt>
      <trkpt lat="48.3927" lon="2.53826">
        <ele>120.302124</ele>
        <time>2012-05-07T14:00:40Z</time>
      </trkpt>
      <trkpt lat="48.39272" lon="2.53835">
        <ele>119.34082</ele>
        <time>2012-05-07T14:00:51Z</time>
      </trkpt>
      <trkpt lat="48.39272" lon="2.53842">
        <ele>119.34082</ele>
        <time>2012-05-07T14:01:00Z</time>
      </trkpt>
      <trkpt lat="48.3927" lon="2.53849">
        <ele>120.302124</ele>
        <time>2012-05-07T14:01:09Z</time>
      </trkpt>
      <trkpt lat="48.39268" lon="2.53856">
        <ele>120.302124</ele>
        <time>2012-05-07T14:01:17Z</time>
      </trkpt>
      <trkpt lat="48.39266" lon="2.53861">
        <ele>120.782837</ele>
        <time>2012-05-07T14:01:20Z</time>
      </trkpt>
      <trkpt lat="48.39262" lon="2.5388">
        <ele>121.26355</ele>
        <time>2012-05-07T14:01:31Z</time>
      </trkpt>
      <trkpt lat="48.39258" lon="2.53892">
        <ele>121.26355</ele>
        <time>2012-05-07T14:01:40Z</time>
      </trkpt>
      <trkpt lat="48.39249" lon="2.53904">
        <ele>121.26355</ele>
        <time>2012-05-07T14:01:51Z</time>
      </trkpt>
      <trkpt lat="48.39241" lon="2.53909">
        <ele>121.26355</ele>
        <time>2012-05-07T14:02:00Z</time>
      </trkpt>
      <trkpt lat="48.39236" lon="2.5392">
        <ele>120.782837</ele>
        <time>2012-05-07T14:02:07Z</time>
      </trkpt>
      <trkpt lat="48.39233" lon="2.53931">
        <ele>120.782837</ele>
        <time>2012-05-07T14:02:14Z</time>
      </trkpt>
      <trkpt lat="48.3923" lon="2.53953">
        <ele>121.26355</ele>
        <time>2012-05-07T14:02:26Z</time>
      </trkpt>
      <trkpt lat="48.39227" lon="2.53966">
        <ele>120.302124</ele>
        <time>2012-05-07T14:02:35Z</time>
      </trkpt>
      <trkpt lat="48.39227" lon="2.53981">
        <ele>120.782837</ele>
        <time>2012-05-07T14:02:44Z</time>
      </trkpt>
      <trkpt lat="48.39231" lon="2.53996">
        <ele>120.302124</ele>
        <time>2012-05-07T14:02:53Z</time>
      </trkpt>
      <trkpt lat="48.39234" lon="2.54009">
        <ele>120.302124</ele>
        <time>2012-05-07T14:03:00Z</time>
      </trkpt>
      <trkpt lat="48.39236" lon="2.54022">
        <ele>119.34082</ele>
        <time>2012-05-07T14:03:09Z</time>
      </trkpt>
      <trkpt lat="48.39236" lon="2.54037">
        <ele>119.821411</ele>
        <time>2012-05-07T14:03:18Z</time>
      </trkpt>
      <trkpt lat="48.39237" lon="2.54044">
        <ele>119.821411</ele>
        <time>2012-05-07T14:03:22Z</time>
      </trkpt>
      <trkpt lat="48.39236" lon="2.54047">
        <ele>120.302124</ele>
        <time>2012-05-07T14:03:25Z</time>
      </trkpt>
      <trkpt lat="48.39239" lon="2.54059">
        <ele>120.302124</ele>
        <time>2012-05-07T14:03:33Z</time>
      </trkpt>
      <trkpt lat="48.39237" lon="2.54071">
        <ele>120.302124</ele>
        <time>2012-05-07T14:03:42Z</time>
      </trkpt>
      <trkpt lat="48.39238" lon="2.54081">
        <ele>120.302124</ele>
        <time>2012-05-07T14:03:48Z</time>
      </trkpt>
      <trkpt lat="48.39245" lon="2.54096">
        <ele>119.821411</ele>
        <time>2012-05-07T14:03:57Z</time>
      </trkpt>
      <trkpt lat="48.39247" lon="2.54105">
        <ele>120.302124</ele>
        <time>2012-05-07T14:04:04Z</time>
      </trkpt>
      <trkpt lat="48.39248" lon="2.54114">
        <ele>120.782837</ele>
        <time>2012-05-07T14:04:10Z</time>
      </trkpt>
      <trkpt lat="48.39244" lon="2.54126">
        <ele>120.782837</ele>
        <time>2012-05-07T14:04:21Z</time>
      </trkpt>
      <trkpt lat="48.3924" lon="2.5413">
        <ele>120.782837</ele>
        <time>2012-05-07T14:04:27Z</time>
      </trkpt>
      <trkpt lat="48.39234" lon="2.54139">
        <ele>121.26355</ele>
        <time>2012-05-07T14:04:36Z</time>
      </trkpt>
      <trkpt lat="48.39228" lon="2.54145">
        <ele>121.744141</ele>
        <time>2012-05-07T14:04:44Z</time>
      </trkpt>
      <trkpt lat="48.39226" lon="2.5415">
        <ele>121.26355</ele>
        <time>2012-05-07T14:04:53Z</time>
      </trkpt>
      <trkpt lat="48.39222" lon="2.54157">
        <ele>120.782837</ele>
        <time>2012-05-07T14:05:01Z</time>
      </trkpt>
      <trkpt lat="48.39214" lon="2.54168">
        <ele>121.26355</ele>
        <time>2012-05-07T14:05:09Z</time>
      </trkpt>
      <trkpt lat="48.39211" lon="2.54181">
        <ele>121.26355</ele>
        <time>2012-05-07T14:05:17Z</time>
      </trkpt>
      <trkpt lat="48.39209" lon="2.54189">
        <ele>120.782837</ele>
        <time>2012-05-07T14:05:21Z</time>
      </trkpt>
      <trkpt lat="48.39205" lon="2.54208">
        <ele>120.782837</ele>
        <time>2012-05-07T14:05:31Z</time>
      </trkpt>
      <trkpt lat="48.39205" lon="2.54226">
        <ele>120.302124</ele>
        <time>2012-05-07T14:05:40Z</time>
      </trkpt>
      <trkpt lat="48.39206" lon="2.54234">
        <ele>120.302124</ele>
        <time>2012-05-07T14:05:47Z</time>
      </trkpt>
      <trkpt lat="48.39206" lon="2.54237">
        <ele>120.782837</ele>
        <time>2012-05-07T14:05:51Z</time>
      </trkpt>
      <trkpt lat="48.39204" lon="2.54254">
        <ele>120.782837</ele>
        <time>2012-05-07T14:06:00Z</time>
      </trkpt>
      <trkpt lat="48.39204" lon="2.54273">
        <ele>120.782837</ele>
        <time>2012-05-07T14:06:10Z</time>
      </trkpt>
      <trkpt lat="48.39205" lon="2.54294">
        <ele>120.782837</ele>
        <time>2012-05-07T14:06:20Z</time>
      </trkpt>
      <trkpt lat="48.39203" lon="2.54307">
        <ele>120.302124</ele>
        <time>2012-05-07T14:06:27Z</time>
      </trkpt>
      <trkpt lat="48.39203" lon="2.54321">
        <ele>119.34082</ele>
        <time>2012-05-07T14:06:37Z</time>
      </trkpt>
      <trkpt lat="48.39207" lon="2.54334">
        <ele>117.898804</ele>
        <time>2012-05-07T14:06:45Z</time>
      </trkpt>
      <trkpt lat="48.39207" lon="2.54342">
        <ele>116.9375</ele>
        <time>2012-05-07T14:06:55Z</time>
      </trkpt>
      <trkpt lat="48.39206" lon="2.54351">
        <ele>115.495605</ele>
        <time>2012-05-07T14:07:01Z</time>
      </trkpt>
      <trkpt lat="48.39202" lon="2.54365">
        <ele>113.572998</ele>
        <time>2012-05-07T14:07:11Z</time>
      </trkpt>
      <trkpt lat="48.39197" lon="2.5437">
        <ele>112.130981</ele>
        <time>2012-05-07T14:07:21Z</time>
      </trkpt>
      <trkpt lat="48.39192" lon="2.54376">
        <ele>111.650269</ele>
        <time>2012-05-07T14:07:30Z</time>
      </trkpt>
      <trkpt lat="48.39186" lon="2.54385">
        <ele>109.727661</ele>
        <time>2012-05-07T14:07:38Z</time>
      </trkpt>
      <trkpt lat="48.39184" lon="2.54387">
        <ele>109.727661</ele>
        <time>2012-05-07T14:07:40Z</time>
      </trkpt>
      <trkpt lat="48.3918" lon="2.54396">
        <ele>108.285645</ele>
        <time>2012-05-07T14:07:46Z</time>
      </trkpt>
      <trkpt lat="48.39176" lon="2.54402">
        <ele>107.805054</ele>
        <time>2012-05-07T14:07:52Z</time>
      </trkpt>
      <trkpt lat="48.39172" lon="2.54425">
        <ele>106.843628</ele>
        <time>2012-05-07T14:08:03Z</time>
      </trkpt>
      <trkpt lat="48.39169" lon="2.54444">
        <ele>105.401733</ele>
        <time>2012-05-07T14:08:12Z</time>
      </trkpt>
      <trkpt lat="48.39166" lon="2.54464">
        <ele>103.959717</ele>
        <time>2012-05-07T14:08:22Z</time>
      </trkpt>
      <trkpt lat="48.39161" lon="2.54484">
        <ele>102.998291</ele>
        <time>2012-05-07T14:08:32Z</time>
      </trkpt>
      <trkpt lat="48.39153" lon="2.54507">
        <ele>100.595093</ele>
        <time>2012-05-07T14:08:44Z</time>
      </trkpt>
      <trkpt lat="48.39152" lon="2.54522">
        <ele>100.114502</ele>
        <time>2012-05-07T14:08:54Z</time>
      </trkpt>
      <trkpt lat="48.39153" lon="2.5453">
        <ele>99.633789</ele>
        <time>2012-05-07T14:08:59Z</time>
      </trkpt>
      <trkpt lat="48.39151" lon="2.54546">
        <ele>99.153076</ele>
        <time>2012-05-07T14:09:08Z</time>
      </trkpt>
      <trkpt lat="48.39151" lon="2.54554">
        <ele>98.191895</ele>
        <time>2012-05-07T14:09:13Z</time>
      </trkpt>
      <trkpt lat="48.39159" lon="2.54563">
        <ele>96.749878</ele>
        <time>2012-05-07T14:09:22Z</time>
      </trkpt>
      <trkpt lat="48.39161" lon="2.54572">
        <ele>95.788452</ele>
        <time>2012-05-07T14:09:31Z</time>
      </trkpt>
      <trkpt lat="48.39164" lon="2.54576">
        <ele>94.827148</ele>
        <time>2012-05-07T14:09:35Z</time>
      </trkpt>
      <trkpt lat="48.39164" lon="2.54584">
        <ele>94.827148</ele>
        <time>2012-05-07T14:09:39Z</time>
      </trkpt>
      <trkpt lat="48.39165" lon="2.54605">
        <ele>93.385132</ele>
        <time>2012-05-07T14:09:49Z</time>
      </trkpt>
      <trkpt lat="48.39163" lon="2.54616">
        <ele>92.42395</ele>
        <time>2012-05-07T14:09:57Z</time>
      </trkpt>
      <trkpt lat="48.39163" lon="2.54631">
        <ele>91.943237</ele>
        <time>2012-05-07T14:10:06Z</time>
      </trkpt>
      <trkpt lat="48.39163" lon="2.54643">
        <ele>90.981934</ele>
        <time>2012-05-07T14:10:13Z</time>
      </trkpt>
      <trkpt lat="48.39163" lon="2.54654">
        <ele>90.981934</ele>
        <time>2012-05-07T14:10:17Z</time>
      </trkpt>
      <trkpt lat="48.39159" lon="2.54673">
        <ele>89.539917</ele>
        <time>2012-05-07T14:10:26Z</time>
      </trkpt>
      <trkpt lat="48.39158" lon="2.54692">
        <ele>89.059326</ele>
        <time>2012-05-07T14:10:34Z</time>
      </trkpt>
      <trkpt lat="48.39157" lon="2.54695">
        <ele>88.578735</ele>
        <time>2012-05-07T14:10:36Z</time>
      </trkpt>
      <trkpt lat="48.39152" lon="2.5471">
        <ele>88.098022</ele>
        <time>2012-05-07T14:10:44Z</time>
      </trkpt>
      <trkpt lat="48.39148" lon="2.54723">
        <ele>87.617188</ele>
        <time>2012-05-07T14:10:53Z</time>
      </trkpt>
      <trkpt lat="48.39148" lon="2.54732">
        <ele>87.617188</ele>
        <time>2012-05-07T14:10:57Z</time>
      </trkpt>
      <trkpt lat="48.3915" lon="2.54745">
        <ele>87.617188</ele>
        <time>2012-05-07T14:11:07Z</time>
      </trkpt>
      <trkpt lat="48.3915" lon="2.54762">
        <ele>87.136597</ele>
        <time>2012-05-07T14:11:16Z</time>
      </trkpt>
      <trkpt lat="48.39149" lon="2.54774">
        <ele>86.656006</ele>
        <time>2012-05-07T14:11:24Z</time>
      </trkpt>
      <trkpt lat="48.39149" lon="2.54788">
        <ele>86.656006</ele>
        <time>2012-05-07T14:11:31Z</time>
      </trkpt>
      <trkpt lat="48.3915" lon="2.54797">
        <ele>86.175293</ele>
        <time>2012-05-07T14:11:39Z</time>
      </trkpt>
      <trkpt lat="48.39149" lon="2.54813">
        <ele>86.175293</ele>
        <time>2012-05-07T14:11:48Z</time>
      </trkpt>
      <trkpt lat="48.39146" lon="2.54828">
        <ele>86.175293</ele>
        <time>2012-05-07T14:11:57Z</time>
      </trkpt>
      <trkpt lat="48.39146" lon="2.54832">
        <ele>86.175293</ele>
        <time>2012-05-07T14:11:59Z</time>
      </trkpt>
      <trkpt lat="48.39145" lon="2.54852">
        <ele>85.69458</ele>
        <time>2012-05-07T14:12:07Z</time>
      </trkpt>
      <trkpt lat="48.39146" lon="2.54868">
        <ele>85.69458</ele>
        <time>2012-05-07T14:12:15Z</time>
      </trkpt>
      <trkpt lat="48.39145" lon="2.54886">
        <ele>84.733398</ele>
        <time>2012-05-07T14:12:23Z</time>
      </trkpt>
      <trkpt lat="48.39147" lon="2.54905">
        <ele>85.213989</ele>
        <time>2012-05-07T14:12:31Z</time>
      </trkpt>
      <trkpt lat="48.3915" lon="2.54926">
        <ele>84.733398</ele>
        <time>2012-05-07T14:12:40Z</time>
      </trkpt>
      <trkpt lat="48.39153" lon="2.54942">
        <ele>84.733398</ele>
        <time>2012-05-07T14:12:48Z</time>
      </trkpt>
      <trkpt lat="48.39155" lon="2.54957">
        <ele>84.733398</ele>
        <time>2012-05-07T14:12:56Z</time>
      </trkpt>
      <trkpt lat="48.39153" lon="2.54967">
        <ele>83.771973</ele>
        <time>2012-05-07T14:13:03Z</time>
      </trkpt>
      <trkpt lat="48.39157" lon="2.54982">
        <ele>84.733398</ele>
        <time>2012-05-07T14:13:11Z</time>
      </trkpt>
      <trkpt lat="48.3916" lon="2.54994">
        <ele>84.252686</ele>
        <time>2012-05-07T14:13:20Z</time>
      </trkpt>
      <trkpt lat="48.3916" lon="2.55008">
        <ele>85.213989</ele>
        <time>2012-05-07T14:13:28Z</time>
      </trkpt>
      <trkpt lat="48.39161" lon="2.55019">
        <ele>85.213989</ele>
        <time>2012-05-07T14:13:34Z</time>
      </trkpt>
      <trkpt lat="48.3916" lon="2.55033">
        <ele>86.175293</ele>
        <time>2012-05-07T14:13:41Z</time>
      </trkpt>
      <trkpt lat="48.39163" lon="2.55046">
        <ele>86.656006</ele>
        <time>2012-05-07T14:13:48Z</time>
      </trkpt>
      <trkpt lat="48.39166" lon="2.55068">
        <ele>87.136597</ele>
        <time>2012-05-07T14:13:58Z</time>
      </trkpt>
      <trkpt lat="48.39167" lon="2.55078">
        <ele>88.098022</ele>
        <time>2012-05-07T14:14:04Z</time>
      </trkpt>
      <trkpt lat="48.39167" lon="2.5508">
        <ele>87.617188</ele>
        <time>2012-05-07T14:14:05Z</time>
      </trkpt>
      <trkpt lat="48.39163" lon="2.55094">
        <ele>88.098022</ele>
        <time>2012-05-07T14:14:14Z</time>
      </trkpt>
      <trkpt lat="48.39156" lon="2.55106">
        <ele>87.136597</ele>
        <time>2012-05-07T14:14:22Z</time>
      </trkpt>
      <trkpt lat="48.39151" lon="2.55115">
        <ele>85.69458</ele>
        <time>2012-05-07T14:14:29Z</time>
      </trkpt>
      <trkpt lat="48.39141" lon="2.5512">
        <ele>84.733398</ele>
        <time>2012-05-07T14:14:35Z</time>
      </trkpt>
      <trkpt lat="48.39137" lon="2.5512">
        <ele>84.252686</ele>
        <time>2012-05-07T14:14:37Z</time>
      </trkpt>
      <trkpt lat="48.3913" lon="2.55134">
        <ele>83.771973</ele>
        <time>2012-05-07T14:14:46Z</time>
      </trkpt>
      <trkpt lat="48.39126" lon="2.55142">
        <ele>83.291382</ele>
        <time>2012-05-07T14:14:51Z</time>
      </trkpt>
      <trkpt lat="48.39113" lon="2.55154">
        <ele>83.291382</ele>
        <time>2012-05-07T14:14:59Z</time>
      </trkpt>
      <trkpt lat="48.39111" lon="2.55159">
        <ele>82.810791</ele>
        <time>2012-05-07T14:15:01Z</time>
      </trkpt>
      <trkpt lat="48.39101" lon="2.55181">
        <ele>82.810791</ele>
        <time>2012-05-07T14:15:10Z</time>
      </trkpt>
      <trkpt lat="48.39092" lon="2.552">
        <ele>82.330078</ele>
        <time>2012-05-07T14:15:19Z</time>
      </trkpt>
      <trkpt lat="48.39081" lon="2.55213">
        <ele>82.810791</ele>
        <time>2012-05-07T14:15:29Z</time>
      </trkpt>
      <trkpt lat="48.39072" lon="2.55223">
        <ele>81.849365</ele>
        <time>2012-05-07T14:15:39Z</time>
      </trkpt>
      <trkpt lat="48.39068" lon="2.55227">
        <ele>81.849365</ele>
        <time>2012-05-07T14:15:43Z</time>
      </trkpt>
      <trkpt lat="48.39063" lon="2.55238">
        <ele>81.849365</ele>
        <time>2012-05-07T14:15:51Z</time>
      </trkpt>
      <trkpt lat="48.39061" lon="2.5524">
        <ele>81.849365</ele>
        <time>2012-05-07T14:15:53Z</time>
      </trkpt>
      <trkpt lat="48.39056" lon="2.55244">
        <ele>82.330078</ele>
        <time>2012-05-07T14:16:02Z</time>
      </trkpt>
      <trkpt lat="48.39054" lon="2.55251">
        <ele>82.330078</ele>
        <time>2012-05-07T14:16:14Z</time>
      </trkpt>
      <trkpt lat="48.39054" lon="2.55255">
        <ele>81.849365</ele>
        <time>2012-05-07T14:16:16Z</time>
      </trkpt>
      <trkpt lat="48.39048" lon="2.55279">
        <ele>81.849365</ele>
        <time>2012-05-07T14:16:30Z</time>
      </trkpt>
      <trkpt lat="48.39046" lon="2.55294">
        <ele>81.368774</ele>
        <time>2012-05-07T14:16:41Z</time>
      </trkpt>
      <trkpt lat="48.39044" lon="2.55296">
        <ele>81.849365</ele>
        <time>2012-05-07T14:17:28Z</time>
      </trkpt>
      <trkpt lat="48.3904" lon="2.55298">
        <ele>81.849365</ele>
        <time>2012-05-07T14:17:38Z</time>
      </trkpt>
      <trkpt lat="48.39033" lon="2.55299">
        <ele>82.330078</ele>
        <time>2012-05-07T14:17:47Z</time>
      </trkpt>
      <trkpt lat="48.39025" lon="2.55301">
        <ele>82.810791</ele>
        <time>2012-05-07T14:17:55Z</time>
      </trkpt>
      <trkpt lat="48.39017" lon="2.55303">
        <ele>82.330078</ele>
        <time>2012-05-07T14:18:05Z</time>
      </trkpt>
      <trkpt lat="48.3901" lon="2.5531">
        <ele>82.810791</ele>
        <time>2012-05-07T14:18:14Z</time>
      </trkpt>
      <trkpt lat="48.39007" lon="2.5532">
        <ele>82.330078</ele>
        <time>2012-05-07T14:18:24Z</time>
      </trkpt>
      <trkpt lat="48.39006" lon="2.55327">
        <ele>82.330078</ele>
        <time>2012-05-07T14:18:37Z</time>
      </trkpt>
      <trkpt lat="48.39007" lon="2.55333">
        <ele>82.330078</ele>
        <time>2012-05-07T14:18:51Z</time>
      </trkpt>
    </trkseg>
  </trk>
</gpx>